<?xml version="1.0" encoding="UTF-8" standalone="no" ?>
<gpx xmlns="http://www.topografix.com/GPX/1/1" xmlns:xsi="http://www.w3.org/2001/XMLSchema-instance" xsi:schemaLocation="http://www.topografix.com/GPX/1/1 http://www.topografix.com/GPX/1/1/gpx.xsd" version="1.1" creator="VisuGPX - https://www.visugpx.com">
  <metadata>
    <name>Les chalets de Trés-le-Mont</name>
    <desc><![CDATA[Circuit au départ du col du Feu vers les chalets de Trés-le-Mont et retour.]]></desc>
  </metadata>
  <trk>
    <name><![CDATA[20190212152053-bRKY2]]></name>
    <trkseg>
      <trkpt lat="46.29443" lon="6.50901">
        <ele>1112.38</ele>
        <time>2019-02-07T08:37:58Z</time>
      </trkpt>
      <trkpt lat="46.29443" lon="6.50901">
        <ele>1113.34</ele>
        <time>2019-02-07T08:38:07Z</time>
      </trkpt>
      <trkpt lat="46.29438" lon="6.50903">
        <ele>1113.34</ele>
        <time>2019-02-07T08:38:48Z</time>
      </trkpt>
      <trkpt lat="46.29435" lon="6.509">
        <ele>1112.86</ele>
        <time>2019-02-07T08:39:03Z</time>
      </trkpt>
      <trkpt lat="46.29435" lon="6.509">
        <ele>1113.34</ele>
        <time>2019-02-07T08:39:28Z</time>
      </trkpt>
      <trkpt lat="46.29437" lon="6.50895">
        <ele>1113.82</ele>
        <time>2019-02-07T08:40:39Z</time>
      </trkpt>
      <trkpt lat="46.2944" lon="6.50887">
        <ele>1113.82</ele>
        <time>2019-02-07T08:40:46Z</time>
      </trkpt>
      <trkpt lat="46.29441" lon="6.50879">
        <ele>1114.31</ele>
        <time>2019-02-07T08:40:58Z</time>
      </trkpt>
      <trkpt lat="46.29441" lon="6.50878">
        <ele>1115.27</ele>
        <time>2019-02-07T08:41:12Z</time>
      </trkpt>
      <trkpt lat="46.29441" lon="6.50876">
        <ele>1116.71</ele>
        <time>2019-02-07T08:41:22Z</time>
      </trkpt>
      <trkpt lat="46.29435" lon="6.50868">
        <ele>1116.71</ele>
        <time>2019-02-07T08:41:33Z</time>
      </trkpt>
      <trkpt lat="46.29434" lon="6.50865">
        <ele>1117.19</ele>
        <time>2019-02-07T08:41:35Z</time>
      </trkpt>
      <trkpt lat="46.29431" lon="6.50849">
        <ele>1118.15</ele>
        <time>2019-02-07T08:41:46Z</time>
      </trkpt>
      <trkpt lat="46.29424" lon="6.50836">
        <ele>1119.11</ele>
        <time>2019-02-07T08:41:58Z</time>
      </trkpt>
      <trkpt lat="46.29422" lon="6.50822">
        <ele>1120.07</ele>
        <time>2019-02-07T08:42:10Z</time>
      </trkpt>
      <trkpt lat="46.29421" lon="6.50814">
        <ele>1120.55</ele>
        <time>2019-02-07T08:42:14Z</time>
      </trkpt>
      <trkpt lat="46.29419" lon="6.50807">
        <ele>1121.03</ele>
        <time>2019-02-07T08:42:19Z</time>
      </trkpt>
      <trkpt lat="46.2942" lon="6.50787">
        <ele>1121.52</ele>
        <time>2019-02-07T08:42:33Z</time>
      </trkpt>
      <trkpt lat="46.29416" lon="6.50769">
        <ele>1121.03</ele>
        <time>2019-02-07T08:42:46Z</time>
      </trkpt>
      <trkpt lat="46.29415" lon="6.50767">
        <ele>1122</ele>
        <time>2019-02-07T08:42:59Z</time>
      </trkpt>
      <trkpt lat="46.29412" lon="6.50758">
        <ele>1122</ele>
        <time>2019-02-07T08:43:11Z</time>
      </trkpt>
      <trkpt lat="46.29412" lon="6.50758">
        <ele>1121.52</ele>
        <time>2019-02-07T08:43:33Z</time>
      </trkpt>
      <trkpt lat="46.29409" lon="6.50748">
        <ele>1121.52</ele>
        <time>2019-02-07T08:44:14Z</time>
      </trkpt>
      <trkpt lat="46.29403" lon="6.5073">
        <ele>1122</ele>
        <time>2019-02-07T08:44:28Z</time>
      </trkpt>
      <trkpt lat="46.29398" lon="6.50715">
        <ele>1123.44</ele>
        <time>2019-02-07T08:44:40Z</time>
      </trkpt>
      <trkpt lat="46.29396" lon="6.50701">
        <ele>1121.03</ele>
        <time>2019-02-07T08:44:52Z</time>
      </trkpt>
      <trkpt lat="46.29395" lon="6.50685">
        <ele>1120.07</ele>
        <time>2019-02-07T08:45:04Z</time>
      </trkpt>
      <trkpt lat="46.29395" lon="6.50682">
        <ele>1121.03</ele>
        <time>2019-02-07T08:45:06Z</time>
      </trkpt>
      <trkpt lat="46.29392" lon="6.50658">
        <ele>1119.59</ele>
        <time>2019-02-07T08:45:21Z</time>
      </trkpt>
      <trkpt lat="46.29389" lon="6.50639">
        <ele>1117.67</ele>
        <time>2019-02-07T08:45:32Z</time>
      </trkpt>
      <trkpt lat="46.29387" lon="6.50621">
        <ele>1117.67</ele>
        <time>2019-02-07T08:45:46Z</time>
      </trkpt>
      <trkpt lat="46.29387" lon="6.5061">
        <ele>1117.19</ele>
        <time>2019-02-07T08:45:56Z</time>
      </trkpt>
      <trkpt lat="46.29389" lon="6.50591">
        <ele>1116.71</ele>
        <time>2019-02-07T08:46:06Z</time>
      </trkpt>
      <trkpt lat="46.29392" lon="6.50577">
        <ele>1116.23</ele>
        <time>2019-02-07T08:46:19Z</time>
      </trkpt>
      <trkpt lat="46.29392" lon="6.50571">
        <ele>1115.75</ele>
        <time>2019-02-07T08:46:24Z</time>
      </trkpt>
      <trkpt lat="46.29393" lon="6.50561">
        <ele>1116.23</ele>
        <time>2019-02-07T08:46:33Z</time>
      </trkpt>
      <trkpt lat="46.29396" lon="6.50546">
        <ele>1115.75</ele>
        <time>2019-02-07T08:46:44Z</time>
      </trkpt>
      <trkpt lat="46.29401" lon="6.50526">
        <ele>1115.75</ele>
        <time>2019-02-07T08:46:57Z</time>
      </trkpt>
      <trkpt lat="46.29408" lon="6.50513">
        <ele>1116.23</ele>
        <time>2019-02-07T08:47:10Z</time>
      </trkpt>
      <trkpt lat="46.29416" lon="6.50501">
        <ele>1116.71</ele>
        <time>2019-02-07T08:47:24Z</time>
      </trkpt>
      <trkpt lat="46.2942" lon="6.50492">
        <ele>1116.71</ele>
        <time>2019-02-07T08:47:36Z</time>
      </trkpt>
      <trkpt lat="46.29423" lon="6.50486">
        <ele>1117.19</ele>
        <time>2019-02-07T08:47:45Z</time>
      </trkpt>
      <trkpt lat="46.29429" lon="6.50478">
        <ele>1117.19</ele>
        <time>2019-02-07T08:47:58Z</time>
      </trkpt>
      <trkpt lat="46.29432" lon="6.50472">
        <ele>1117.19</ele>
        <time>2019-02-07T08:48:03Z</time>
      </trkpt>
      <trkpt lat="46.29441" lon="6.50462">
        <ele>1117.67</ele>
        <time>2019-02-07T08:48:17Z</time>
      </trkpt>
      <trkpt lat="46.29451" lon="6.50453">
        <ele>1117.67</ele>
        <time>2019-02-07T08:48:27Z</time>
      </trkpt>
      <trkpt lat="46.29465" lon="6.50441">
        <ele>1120.07</ele>
        <time>2019-02-07T08:48:41Z</time>
      </trkpt>
      <trkpt lat="46.29472" lon="6.50435">
        <ele>1121.03</ele>
        <time>2019-02-07T08:48:56Z</time>
      </trkpt>
      <trkpt lat="46.29481" lon="6.50431">
        <ele>1122.96</ele>
        <time>2019-02-07T08:49:10Z</time>
      </trkpt>
      <trkpt lat="46.2949" lon="6.50426">
        <ele>1124.88</ele>
        <time>2019-02-07T08:49:22Z</time>
      </trkpt>
      <trkpt lat="46.295" lon="6.50417">
        <ele>1125.84</ele>
        <time>2019-02-07T08:49:37Z</time>
      </trkpt>
      <trkpt lat="46.29504" lon="6.50415">
        <ele>1125.84</ele>
        <time>2019-02-07T08:49:40Z</time>
      </trkpt>
      <trkpt lat="46.29516" lon="6.50407">
        <ele>1125.36</ele>
        <time>2019-02-07T08:49:53Z</time>
      </trkpt>
      <trkpt lat="46.29528" lon="6.50399">
        <ele>1124.4</ele>
        <time>2019-02-07T08:50:06Z</time>
      </trkpt>
      <trkpt lat="46.29534" lon="6.50393">
        <ele>1123.44</ele>
        <time>2019-02-07T08:50:15Z</time>
      </trkpt>
      <trkpt lat="46.29539" lon="6.50386">
        <ele>1122.96</ele>
        <time>2019-02-07T08:50:29Z</time>
      </trkpt>
      <trkpt lat="46.29541" lon="6.50385">
        <ele>1122.96</ele>
        <time>2019-02-07T08:50:47Z</time>
      </trkpt>
      <trkpt lat="46.29541" lon="6.50387">
        <ele>1123.44</ele>
        <time>2019-02-07T08:52:23Z</time>
      </trkpt>
      <trkpt lat="46.29541" lon="6.50385">
        <ele>1123.44</ele>
        <time>2019-02-07T08:53:26Z</time>
      </trkpt>
      <trkpt lat="46.29542" lon="6.50385">
        <ele>1123.92</ele>
        <time>2019-02-07T08:54:16Z</time>
      </trkpt>
      <trkpt lat="46.29549" lon="6.50377">
        <ele>1123.92</ele>
        <time>2019-02-07T08:56:06Z</time>
      </trkpt>
      <trkpt lat="46.29555" lon="6.50364">
        <ele>1123.44</ele>
        <time>2019-02-07T08:56:18Z</time>
      </trkpt>
      <trkpt lat="46.29565" lon="6.50351">
        <ele>1121.52</ele>
        <time>2019-02-07T08:56:32Z</time>
      </trkpt>
      <trkpt lat="46.29572" lon="6.50341">
        <ele>1120.55</ele>
        <time>2019-02-07T08:56:44Z</time>
      </trkpt>
      <trkpt lat="46.29579" lon="6.5033">
        <ele>1120.55</ele>
        <time>2019-02-07T08:56:56Z</time>
      </trkpt>
      <trkpt lat="46.29587" lon="6.50324">
        <ele>1120.55</ele>
        <time>2019-02-07T08:57:06Z</time>
      </trkpt>
      <trkpt lat="46.29594" lon="6.50313">
        <ele>1119.59</ele>
        <time>2019-02-07T08:57:17Z</time>
      </trkpt>
      <trkpt lat="46.29596" lon="6.5031">
        <ele>1120.55</ele>
        <time>2019-02-07T08:57:29Z</time>
      </trkpt>
      <trkpt lat="46.29597" lon="6.5031">
        <ele>1120.07</ele>
        <time>2019-02-07T08:59:19Z</time>
      </trkpt>
      <trkpt lat="46.29597" lon="6.5031">
        <ele>1121.52</ele>
        <time>2019-02-07T09:00:07Z</time>
      </trkpt>
      <trkpt lat="46.29605" lon="6.503">
        <ele>1120.55</ele>
        <time>2019-02-07T09:00:43Z</time>
      </trkpt>
      <trkpt lat="46.29613" lon="6.5029">
        <ele>1120.07</ele>
        <time>2019-02-07T09:00:55Z</time>
      </trkpt>
      <trkpt lat="46.29618" lon="6.50286">
        <ele>1119.59</ele>
        <time>2019-02-07T09:01:01Z</time>
      </trkpt>
      <trkpt lat="46.29625" lon="6.50274">
        <ele>1120.07</ele>
        <time>2019-02-07T09:01:13Z</time>
      </trkpt>
      <trkpt lat="46.29632" lon="6.50266">
        <ele>1120.07</ele>
        <time>2019-02-07T09:01:23Z</time>
      </trkpt>
      <trkpt lat="46.29638" lon="6.50259">
        <ele>1120.55</ele>
        <time>2019-02-07T09:01:34Z</time>
      </trkpt>
      <trkpt lat="46.29647" lon="6.50253">
        <ele>1121.52</ele>
        <time>2019-02-07T09:01:49Z</time>
      </trkpt>
      <trkpt lat="46.29657" lon="6.50248">
        <ele>1122.48</ele>
        <time>2019-02-07T09:02:00Z</time>
      </trkpt>
      <trkpt lat="46.29669" lon="6.50235">
        <ele>1123.92</ele>
        <time>2019-02-07T09:02:15Z</time>
      </trkpt>
      <trkpt lat="46.29677" lon="6.50224">
        <ele>1124.88</ele>
        <time>2019-02-07T09:02:29Z</time>
      </trkpt>
      <trkpt lat="46.29677" lon="6.50215">
        <ele>1124.88</ele>
        <time>2019-02-07T09:02:37Z</time>
      </trkpt>
      <trkpt lat="46.29674" lon="6.50206">
        <ele>1125.36</ele>
        <time>2019-02-07T09:02:43Z</time>
      </trkpt>
      <trkpt lat="46.29673" lon="6.50198">
        <ele>1124.88</ele>
        <time>2019-02-07T09:02:49Z</time>
      </trkpt>
      <trkpt lat="46.2967" lon="6.50182">
        <ele>1124.88</ele>
        <time>2019-02-07T09:03:02Z</time>
      </trkpt>
      <trkpt lat="46.29669" lon="6.50176">
        <ele>1124.4</ele>
        <time>2019-02-07T09:03:06Z</time>
      </trkpt>
      <trkpt lat="46.29665" lon="6.50161">
        <ele>1125.36</ele>
        <time>2019-02-07T09:03:22Z</time>
      </trkpt>
      <trkpt lat="46.29661" lon="6.50145">
        <ele>1123.92</ele>
        <time>2019-02-07T09:03:36Z</time>
      </trkpt>
      <trkpt lat="46.2966" lon="6.50142">
        <ele>1123.44</ele>
        <time>2019-02-07T09:03:38Z</time>
      </trkpt>
      <trkpt lat="46.29656" lon="6.50125">
        <ele>1122.96</ele>
        <time>2019-02-07T09:03:52Z</time>
      </trkpt>
      <trkpt lat="46.29656" lon="6.50106">
        <ele>1122</ele>
        <time>2019-02-07T09:04:05Z</time>
      </trkpt>
      <trkpt lat="46.29655" lon="6.50098">
        <ele>1121.03</ele>
        <time>2019-02-07T09:04:18Z</time>
      </trkpt>
      <trkpt lat="46.29654" lon="6.50084">
        <ele>1120.07</ele>
        <time>2019-02-07T09:04:28Z</time>
      </trkpt>
      <trkpt lat="46.29653" lon="6.50067">
        <ele>1118.63</ele>
        <time>2019-02-07T09:04:41Z</time>
      </trkpt>
      <trkpt lat="46.29653" lon="6.50067">
        <ele>1118.63</ele>
        <time>2019-02-07T09:04:55Z</time>
      </trkpt>
      <trkpt lat="46.2965" lon="6.5005">
        <ele>1118.15</ele>
        <time>2019-02-07T09:05:14Z</time>
      </trkpt>
      <trkpt lat="46.29649" lon="6.50046">
        <ele>1118.15</ele>
        <time>2019-02-07T09:05:16Z</time>
      </trkpt>
      <trkpt lat="46.29649" lon="6.50042">
        <ele>1117.19</ele>
        <time>2019-02-07T09:05:18Z</time>
      </trkpt>
      <trkpt lat="46.29645" lon="6.5002">
        <ele>1117.67</ele>
        <time>2019-02-07T09:05:31Z</time>
      </trkpt>
      <trkpt lat="46.29645" lon="6.50017">
        <ele>1117.19</ele>
        <time>2019-02-07T09:05:33Z</time>
      </trkpt>
      <trkpt lat="46.29644" lon="6.50014">
        <ele>1116.71</ele>
        <time>2019-02-07T09:05:35Z</time>
      </trkpt>
      <trkpt lat="46.29643" lon="6.50009">
        <ele>1117.19</ele>
        <time>2019-02-07T09:05:38Z</time>
      </trkpt>
      <trkpt lat="46.29641" lon="6.50005">
        <ele>1117.19</ele>
        <time>2019-02-07T09:05:41Z</time>
      </trkpt>
      <trkpt lat="46.29635" lon="6.49989">
        <ele>1117.19</ele>
        <time>2019-02-07T09:05:52Z</time>
      </trkpt>
      <trkpt lat="46.29634" lon="6.49986">
        <ele>1117.19</ele>
        <time>2019-02-07T09:05:54Z</time>
      </trkpt>
      <trkpt lat="46.29632" lon="6.49973">
        <ele>1117.19</ele>
        <time>2019-02-07T09:06:02Z</time>
      </trkpt>
      <trkpt lat="46.29632" lon="6.49963">
        <ele>1116.71</ele>
        <time>2019-02-07T09:06:08Z</time>
      </trkpt>
      <trkpt lat="46.29631" lon="6.49958">
        <ele>1116.23</ele>
        <time>2019-02-07T09:06:11Z</time>
      </trkpt>
      <trkpt lat="46.29629" lon="6.49937">
        <ele>1115.75</ele>
        <time>2019-02-07T09:06:24Z</time>
      </trkpt>
      <trkpt lat="46.29627" lon="6.49931">
        <ele>1115.27</ele>
        <time>2019-02-07T09:06:28Z</time>
      </trkpt>
      <trkpt lat="46.29625" lon="6.4992">
        <ele>1115.27</ele>
        <time>2019-02-07T09:06:35Z</time>
      </trkpt>
      <trkpt lat="46.29622" lon="6.4991">
        <ele>1115.27</ele>
        <time>2019-02-07T09:06:43Z</time>
      </trkpt>
      <trkpt lat="46.29618" lon="6.49893">
        <ele>1116.23</ele>
        <time>2019-02-07T09:06:57Z</time>
      </trkpt>
      <trkpt lat="46.29617" lon="6.4989">
        <ele>1116.23</ele>
        <time>2019-02-07T09:06:59Z</time>
      </trkpt>
      <trkpt lat="46.29614" lon="6.49874">
        <ele>1116.23</ele>
        <time>2019-02-07T09:07:12Z</time>
      </trkpt>
      <trkpt lat="46.29609" lon="6.49863">
        <ele>1117.19</ele>
        <time>2019-02-07T09:07:24Z</time>
      </trkpt>
      <trkpt lat="46.29603" lon="6.4985">
        <ele>1117.19</ele>
        <time>2019-02-07T09:07:40Z</time>
      </trkpt>
      <trkpt lat="46.296" lon="6.49844">
        <ele>1118.15</ele>
        <time>2019-02-07T09:07:52Z</time>
      </trkpt>
      <trkpt lat="46.29593" lon="6.49834">
        <ele>1119.11</ele>
        <time>2019-02-07T09:08:04Z</time>
      </trkpt>
      <trkpt lat="46.29587" lon="6.49832">
        <ele>1119.59</ele>
        <time>2019-02-07T09:08:18Z</time>
      </trkpt>
      <trkpt lat="46.29577" lon="6.49822">
        <ele>1121.03</ele>
        <time>2019-02-07T09:08:31Z</time>
      </trkpt>
      <trkpt lat="46.29572" lon="6.49816">
        <ele>1122</ele>
        <time>2019-02-07T09:08:36Z</time>
      </trkpt>
      <trkpt lat="46.29565" lon="6.498">
        <ele>1122</ele>
        <time>2019-02-07T09:08:50Z</time>
      </trkpt>
      <trkpt lat="46.29564" lon="6.49797">
        <ele>1122</ele>
        <time>2019-02-07T09:08:52Z</time>
      </trkpt>
      <trkpt lat="46.2956" lon="6.49771">
        <ele>1120.55</ele>
        <time>2019-02-07T09:09:05Z</time>
      </trkpt>
      <trkpt lat="46.29559" lon="6.49768">
        <ele>1121.03</ele>
        <time>2019-02-07T09:09:07Z</time>
      </trkpt>
      <trkpt lat="46.29566" lon="6.49748">
        <ele>1121.03</ele>
        <time>2019-02-07T09:09:20Z</time>
      </trkpt>
      <trkpt lat="46.29567" lon="6.49746">
        <ele>1121.03</ele>
        <time>2019-02-07T09:09:22Z</time>
      </trkpt>
      <trkpt lat="46.29574" lon="6.49734">
        <ele>1121.52</ele>
        <time>2019-02-07T09:09:35Z</time>
      </trkpt>
      <trkpt lat="46.2958" lon="6.49727">
        <ele>1121.52</ele>
        <time>2019-02-07T09:09:47Z</time>
      </trkpt>
      <trkpt lat="46.29581" lon="6.49724">
        <ele>1121.52</ele>
        <time>2019-02-07T09:09:49Z</time>
      </trkpt>
      <trkpt lat="46.29584" lon="6.49717">
        <ele>1121.52</ele>
        <time>2019-02-07T09:09:55Z</time>
      </trkpt>
      <trkpt lat="46.29587" lon="6.49704">
        <ele>1122.48</ele>
        <time>2019-02-07T09:10:07Z</time>
      </trkpt>
      <trkpt lat="46.29588" lon="6.49699">
        <ele>1122</ele>
        <time>2019-02-07T09:10:12Z</time>
      </trkpt>
      <trkpt lat="46.29588" lon="6.49682">
        <ele>1122</ele>
        <time>2019-02-07T09:10:24Z</time>
      </trkpt>
      <trkpt lat="46.29591" lon="6.49669">
        <ele>1122.48</ele>
        <time>2019-02-07T09:10:35Z</time>
      </trkpt>
      <trkpt lat="46.29595" lon="6.49657">
        <ele>1123.92</ele>
        <time>2019-02-07T09:10:47Z</time>
      </trkpt>
      <trkpt lat="46.29599" lon="6.49646">
        <ele>1123.44</ele>
        <time>2019-02-07T09:10:58Z</time>
      </trkpt>
      <trkpt lat="46.29604" lon="6.49633">
        <ele>1123.92</ele>
        <time>2019-02-07T09:11:10Z</time>
      </trkpt>
      <trkpt lat="46.29606" lon="6.49627">
        <ele>1123.92</ele>
        <time>2019-02-07T09:11:15Z</time>
      </trkpt>
      <trkpt lat="46.29607" lon="6.49624">
        <ele>1124.4</ele>
        <time>2019-02-07T09:11:17Z</time>
      </trkpt>
      <trkpt lat="46.29612" lon="6.49611">
        <ele>1124.4</ele>
        <time>2019-02-07T09:11:27Z</time>
      </trkpt>
      <trkpt lat="46.29617" lon="6.49595">
        <ele>1125.36</ele>
        <time>2019-02-07T09:11:41Z</time>
      </trkpt>
      <trkpt lat="46.29623" lon="6.49581">
        <ele>1125.84</ele>
        <time>2019-02-07T09:11:56Z</time>
      </trkpt>
      <trkpt lat="46.29629" lon="6.49564">
        <ele>1126.32</ele>
        <time>2019-02-07T09:12:09Z</time>
      </trkpt>
      <trkpt lat="46.29634" lon="6.49549">
        <ele>1125.36</ele>
        <time>2019-02-07T09:12:22Z</time>
      </trkpt>
      <trkpt lat="46.29638" lon="6.49537">
        <ele>1125.84</ele>
        <time>2019-02-07T09:12:34Z</time>
      </trkpt>
      <trkpt lat="46.29643" lon="6.49523">
        <ele>1126.8</ele>
        <time>2019-02-07T09:12:47Z</time>
      </trkpt>
      <trkpt lat="46.29646" lon="6.49515">
        <ele>1127.28</ele>
        <time>2019-02-07T09:12:55Z</time>
      </trkpt>
      <trkpt lat="46.29652" lon="6.49503">
        <ele>1127.76</ele>
        <time>2019-02-07T09:13:08Z</time>
      </trkpt>
      <trkpt lat="46.29657" lon="6.49496">
        <ele>1128.73</ele>
        <time>2019-02-07T09:13:19Z</time>
      </trkpt>
      <trkpt lat="46.29664" lon="6.49488">
        <ele>1129.69</ele>
        <time>2019-02-07T09:13:30Z</time>
      </trkpt>
      <trkpt lat="46.29669" lon="6.49481">
        <ele>1131.13</ele>
        <time>2019-02-07T09:13:42Z</time>
      </trkpt>
      <trkpt lat="46.29675" lon="6.49472">
        <ele>1131.61</ele>
        <time>2019-02-07T09:13:54Z</time>
      </trkpt>
      <trkpt lat="46.2968" lon="6.49458">
        <ele>1133.53</ele>
        <time>2019-02-07T09:14:08Z</time>
      </trkpt>
      <trkpt lat="46.29686" lon="6.49442">
        <ele>1135.45</ele>
        <time>2019-02-07T09:14:22Z</time>
      </trkpt>
      <trkpt lat="46.29688" lon="6.49434">
        <ele>1136.9</ele>
        <time>2019-02-07T09:14:34Z</time>
      </trkpt>
      <trkpt lat="46.29686" lon="6.49422">
        <ele>1138.34</ele>
        <time>2019-02-07T09:14:47Z</time>
      </trkpt>
      <trkpt lat="46.29682" lon="6.4941">
        <ele>1140.26</ele>
        <time>2019-02-07T09:14:59Z</time>
      </trkpt>
      <trkpt lat="46.29679" lon="6.49403">
        <ele>1141.7</ele>
        <time>2019-02-07T09:15:12Z</time>
      </trkpt>
      <trkpt lat="46.2968" lon="6.49403">
        <ele>1139.78</ele>
        <time>2019-02-07T09:15:33Z</time>
      </trkpt>
      <trkpt lat="46.29678" lon="6.49403">
        <ele>1140.74</ele>
        <time>2019-02-07T09:19:34Z</time>
      </trkpt>
      <trkpt lat="46.29683" lon="6.494">
        <ele>1141.22</ele>
        <time>2019-02-07T09:20:03Z</time>
      </trkpt>
      <trkpt lat="46.29684" lon="6.49398">
        <ele>1141.7</ele>
        <time>2019-02-07T09:21:13Z</time>
      </trkpt>
      <trkpt lat="46.29684" lon="6.49397">
        <ele>1141.7</ele>
        <time>2019-02-07T09:21:16Z</time>
      </trkpt>
      <trkpt lat="46.29681" lon="6.49386">
        <ele>1143.14</ele>
        <time>2019-02-07T09:21:27Z</time>
      </trkpt>
      <trkpt lat="46.29681" lon="6.4938">
        <ele>1142.66</ele>
        <time>2019-02-07T09:21:31Z</time>
      </trkpt>
      <trkpt lat="46.2968" lon="6.49366">
        <ele>1142.66</ele>
        <time>2019-02-07T09:21:40Z</time>
      </trkpt>
      <trkpt lat="46.29679" lon="6.49361">
        <ele>1142.66</ele>
        <time>2019-02-07T09:21:43Z</time>
      </trkpt>
      <trkpt lat="46.2968" lon="6.49357">
        <ele>1142.66</ele>
        <time>2019-02-07T09:21:46Z</time>
      </trkpt>
      <trkpt lat="46.29675" lon="6.49342">
        <ele>1143.14</ele>
        <time>2019-02-07T09:21:59Z</time>
      </trkpt>
      <trkpt lat="46.29674" lon="6.49331">
        <ele>1143.14</ele>
        <time>2019-02-07T09:22:09Z</time>
      </trkpt>
      <trkpt lat="46.29671" lon="6.49316">
        <ele>1141.7</ele>
        <time>2019-02-07T09:22:22Z</time>
      </trkpt>
      <trkpt lat="46.29667" lon="6.49307">
        <ele>1139.3</ele>
        <time>2019-02-07T09:22:30Z</time>
      </trkpt>
      <trkpt lat="46.29666" lon="6.49305">
        <ele>1137.86</ele>
        <time>2019-02-07T09:22:32Z</time>
      </trkpt>
      <trkpt lat="46.29665" lon="6.49302">
        <ele>1140.26</ele>
        <time>2019-02-07T09:22:34Z</time>
      </trkpt>
      <trkpt lat="46.29662" lon="6.49293">
        <ele>1139.3</ele>
        <time>2019-02-07T09:22:41Z</time>
      </trkpt>
      <trkpt lat="46.29661" lon="6.49282">
        <ele>1141.22</ele>
        <time>2019-02-07T09:22:49Z</time>
      </trkpt>
      <trkpt lat="46.29661" lon="6.49275">
        <ele>1141.7</ele>
        <time>2019-02-07T09:22:54Z</time>
      </trkpt>
      <trkpt lat="46.2966" lon="6.49269">
        <ele>1140.26</ele>
        <time>2019-02-07T09:22:59Z</time>
      </trkpt>
      <trkpt lat="46.2966" lon="6.49256">
        <ele>1143.14</ele>
        <time>2019-02-07T09:23:09Z</time>
      </trkpt>
      <trkpt lat="46.2966" lon="6.49251">
        <ele>1142.66</ele>
        <time>2019-02-07T09:23:15Z</time>
      </trkpt>
      <trkpt lat="46.29659" lon="6.4924">
        <ele>1143.14</ele>
        <time>2019-02-07T09:23:26Z</time>
      </trkpt>
      <trkpt lat="46.29659" lon="6.49232">
        <ele>1146.03</ele>
        <time>2019-02-07T09:23:37Z</time>
      </trkpt>
      <trkpt lat="46.29659" lon="6.4923">
        <ele>1143.63</ele>
        <time>2019-02-07T09:23:39Z</time>
      </trkpt>
      <trkpt lat="46.29657" lon="6.49227">
        <ele>1146.03</ele>
        <time>2019-02-07T09:23:45Z</time>
      </trkpt>
      <trkpt lat="46.29654" lon="6.49221">
        <ele>1146.51</ele>
        <time>2019-02-07T09:23:56Z</time>
      </trkpt>
      <trkpt lat="46.29653" lon="6.49218">
        <ele>1149.39</ele>
        <time>2019-02-07T09:24:06Z</time>
      </trkpt>
      <trkpt lat="46.29653" lon="6.49216">
        <ele>1148.43</ele>
        <time>2019-02-07T09:24:07Z</time>
      </trkpt>
      <trkpt lat="46.29652" lon="6.49213">
        <ele>1151.8</ele>
        <time>2019-02-07T09:24:09Z</time>
      </trkpt>
      <trkpt lat="46.29652" lon="6.49212">
        <ele>1151.8</ele>
        <time>2019-02-07T09:24:10Z</time>
      </trkpt>
      <trkpt lat="46.29651" lon="6.4921">
        <ele>1148.43</ele>
        <time>2019-02-07T09:24:12Z</time>
      </trkpt>
      <trkpt lat="46.29651" lon="6.4921">
        <ele>1151.32</ele>
        <time>2019-02-07T09:24:13Z</time>
      </trkpt>
      <trkpt lat="46.29651" lon="6.4921">
        <ele>1147.95</ele>
        <time>2019-02-07T09:24:16Z</time>
      </trkpt>
      <trkpt lat="46.2965" lon="6.49208">
        <ele>1150.35</ele>
        <time>2019-02-07T09:24:19Z</time>
      </trkpt>
      <trkpt lat="46.2965" lon="6.49205">
        <ele>1147.47</ele>
        <time>2019-02-07T09:24:21Z</time>
      </trkpt>
      <trkpt lat="46.2965" lon="6.49204">
        <ele>1148.43</ele>
        <time>2019-02-07T09:24:22Z</time>
      </trkpt>
      <trkpt lat="46.29649" lon="6.49198">
        <ele>1151.8</ele>
        <time>2019-02-07T09:24:27Z</time>
      </trkpt>
      <trkpt lat="46.29648" lon="6.49197">
        <ele>1151.32</ele>
        <time>2019-02-07T09:24:28Z</time>
      </trkpt>
      <trkpt lat="46.29648" lon="6.49195">
        <ele>1149.87</ele>
        <time>2019-02-07T09:24:31Z</time>
      </trkpt>
      <trkpt lat="46.29646" lon="6.49187">
        <ele>1152.76</ele>
        <time>2019-02-07T09:24:38Z</time>
      </trkpt>
      <trkpt lat="46.29645" lon="6.49181">
        <ele>1157.08</ele>
        <time>2019-02-07T09:24:44Z</time>
      </trkpt>
      <trkpt lat="46.29644" lon="6.49178">
        <ele>1152.76</ele>
        <time>2019-02-07T09:24:47Z</time>
      </trkpt>
      <trkpt lat="46.29643" lon="6.49175">
        <ele>1152.28</ele>
        <time>2019-02-07T09:24:51Z</time>
      </trkpt>
      <trkpt lat="46.29642" lon="6.49167">
        <ele>1155.16</ele>
        <time>2019-02-07T09:25:00Z</time>
      </trkpt>
      <trkpt lat="46.29641" lon="6.49165">
        <ele>1158.05</ele>
        <time>2019-02-07T09:25:03Z</time>
      </trkpt>
      <trkpt lat="46.29641" lon="6.49165">
        <ele>1156.12</ele>
        <time>2019-02-07T09:25:04Z</time>
      </trkpt>
      <trkpt lat="46.29639" lon="6.49162">
        <ele>1152.76</ele>
        <time>2019-02-07T09:25:07Z</time>
      </trkpt>
      <trkpt lat="46.29638" lon="6.49155">
        <ele>1155.64</ele>
        <time>2019-02-07T09:25:17Z</time>
      </trkpt>
      <trkpt lat="46.29636" lon="6.49151">
        <ele>1157.08</ele>
        <time>2019-02-07T09:25:21Z</time>
      </trkpt>
      <trkpt lat="46.29633" lon="6.49147">
        <ele>1159.97</ele>
        <time>2019-02-07T09:25:30Z</time>
      </trkpt>
      <trkpt lat="46.29633" lon="6.49146">
        <ele>1156.6</ele>
        <time>2019-02-07T09:25:32Z</time>
      </trkpt>
      <trkpt lat="46.29633" lon="6.49146">
        <ele>1156.6</ele>
        <time>2019-02-07T09:25:33Z</time>
      </trkpt>
      <trkpt lat="46.29633" lon="6.49142">
        <ele>1157.56</ele>
        <time>2019-02-07T09:25:37Z</time>
      </trkpt>
      <trkpt lat="46.29631" lon="6.49138">
        <ele>1158.05</ele>
        <time>2019-02-07T09:25:42Z</time>
      </trkpt>
      <trkpt lat="46.29631" lon="6.4913">
        <ele>1159.01</ele>
        <time>2019-02-07T09:25:50Z</time>
      </trkpt>
      <trkpt lat="46.29632" lon="6.49116">
        <ele>1157.08</ele>
        <time>2019-02-07T09:26:02Z</time>
      </trkpt>
      <trkpt lat="46.29632" lon="6.49115">
        <ele>1156.6</ele>
        <time>2019-02-07T09:26:03Z</time>
      </trkpt>
      <trkpt lat="46.29635" lon="6.49104">
        <ele>1158.53</ele>
        <time>2019-02-07T09:26:16Z</time>
      </trkpt>
      <trkpt lat="46.29637" lon="6.49091">
        <ele>1157.56</ele>
        <time>2019-02-07T09:26:27Z</time>
      </trkpt>
      <trkpt lat="46.29637" lon="6.4908">
        <ele>1158.05</ele>
        <time>2019-02-07T09:26:40Z</time>
      </trkpt>
      <trkpt lat="46.29635" lon="6.49074">
        <ele>1156.6</ele>
        <time>2019-02-07T09:26:46Z</time>
      </trkpt>
      <trkpt lat="46.29633" lon="6.49068">
        <ele>1157.08</ele>
        <time>2019-02-07T09:26:54Z</time>
      </trkpt>
      <trkpt lat="46.29633" lon="6.49053">
        <ele>1156.12</ele>
        <time>2019-02-07T09:27:08Z</time>
      </trkpt>
      <trkpt lat="46.2963" lon="6.49048">
        <ele>1158.53</ele>
        <time>2019-02-07T09:27:17Z</time>
      </trkpt>
      <trkpt lat="46.29624" lon="6.49047">
        <ele>1159.01</ele>
        <time>2019-02-07T09:27:29Z</time>
      </trkpt>
      <trkpt lat="46.29621" lon="6.49046">
        <ele>1159.49</ele>
        <time>2019-02-07T09:27:34Z</time>
      </trkpt>
      <trkpt lat="46.29617" lon="6.49045">
        <ele>1160.45</ele>
        <time>2019-02-07T09:27:45Z</time>
      </trkpt>
      <trkpt lat="46.29612" lon="6.49045">
        <ele>1160.93</ele>
        <time>2019-02-07T09:27:54Z</time>
      </trkpt>
      <trkpt lat="46.29606" lon="6.49053">
        <ele>1162.37</ele>
        <time>2019-02-07T09:28:04Z</time>
      </trkpt>
      <trkpt lat="46.29605" lon="6.4906">
        <ele>1163.33</ele>
        <time>2019-02-07T09:28:11Z</time>
      </trkpt>
      <trkpt lat="46.29605" lon="6.49064">
        <ele>1163.33</ele>
        <time>2019-02-07T09:28:15Z</time>
      </trkpt>
      <trkpt lat="46.29601" lon="6.49077">
        <ele>1163.33</ele>
        <time>2019-02-07T09:28:26Z</time>
      </trkpt>
      <trkpt lat="46.296" lon="6.4908">
        <ele>1163.33</ele>
        <time>2019-02-07T09:28:29Z</time>
      </trkpt>
      <trkpt lat="46.29598" lon="6.49087">
        <ele>1163.81</ele>
        <time>2019-02-07T09:28:34Z</time>
      </trkpt>
      <trkpt lat="46.29597" lon="6.49089">
        <ele>1163.81</ele>
        <time>2019-02-07T09:28:36Z</time>
      </trkpt>
      <trkpt lat="46.29591" lon="6.491">
        <ele>1164.29</ele>
        <time>2019-02-07T09:28:48Z</time>
      </trkpt>
      <trkpt lat="46.29585" lon="6.49109">
        <ele>1164.77</ele>
        <time>2019-02-07T09:28:57Z</time>
      </trkpt>
      <trkpt lat="46.29584" lon="6.49114">
        <ele>1163.81</ele>
        <time>2019-02-07T09:29:02Z</time>
      </trkpt>
      <trkpt lat="46.29579" lon="6.49118">
        <ele>1163.81</ele>
        <time>2019-02-07T09:29:13Z</time>
      </trkpt>
      <trkpt lat="46.29573" lon="6.49123">
        <ele>1164.77</ele>
        <time>2019-02-07T09:29:23Z</time>
      </trkpt>
      <trkpt lat="46.29571" lon="6.49124">
        <ele>1165.74</ele>
        <time>2019-02-07T09:29:26Z</time>
      </trkpt>
      <trkpt lat="46.29563" lon="6.49127">
        <ele>1166.22</ele>
        <time>2019-02-07T09:29:38Z</time>
      </trkpt>
      <trkpt lat="46.29559" lon="6.49125">
        <ele>1167.18</ele>
        <time>2019-02-07T09:29:51Z</time>
      </trkpt>
      <trkpt lat="46.29553" lon="6.49124">
        <ele>1167.66</ele>
        <time>2019-02-07T09:30:05Z</time>
      </trkpt>
      <trkpt lat="46.2955" lon="6.4912">
        <ele>1168.62</ele>
        <time>2019-02-07T09:30:22Z</time>
      </trkpt>
      <trkpt lat="46.29549" lon="6.49119">
        <ele>1168.62</ele>
        <time>2019-02-07T09:30:53Z</time>
      </trkpt>
      <trkpt lat="46.29545" lon="6.49114">
        <ele>1170.06</ele>
        <time>2019-02-07T09:31:05Z</time>
      </trkpt>
      <trkpt lat="46.2954" lon="6.49104">
        <ele>1172.47</ele>
        <time>2019-02-07T09:31:20Z</time>
      </trkpt>
      <trkpt lat="46.29539" lon="6.49103">
        <ele>1172.47</ele>
        <time>2019-02-07T09:31:21Z</time>
      </trkpt>
      <trkpt lat="46.29534" lon="6.49097">
        <ele>1172.95</ele>
        <time>2019-02-07T09:31:35Z</time>
      </trkpt>
      <trkpt lat="46.29528" lon="6.49096">
        <ele>1174.87</ele>
        <time>2019-02-07T09:31:50Z</time>
      </trkpt>
      <trkpt lat="46.29523" lon="6.49098">
        <ele>1174.39</ele>
        <time>2019-02-07T09:32:03Z</time>
      </trkpt>
      <trkpt lat="46.29518" lon="6.49099">
        <ele>1174.39</ele>
        <time>2019-02-07T09:32:15Z</time>
      </trkpt>
      <trkpt lat="46.2951" lon="6.49101">
        <ele>1176.31</ele>
        <time>2019-02-07T09:32:25Z</time>
      </trkpt>
      <trkpt lat="46.29505" lon="6.49105">
        <ele>1176.79</ele>
        <time>2019-02-07T09:32:34Z</time>
      </trkpt>
      <trkpt lat="46.295" lon="6.49109">
        <ele>1178.71</ele>
        <time>2019-02-07T09:32:45Z</time>
      </trkpt>
      <trkpt lat="46.29497" lon="6.4911">
        <ele>1175.35</ele>
        <time>2019-02-07T09:32:50Z</time>
      </trkpt>
      <trkpt lat="46.29497" lon="6.4911">
        <ele>1176.79</ele>
        <time>2019-02-07T09:32:51Z</time>
      </trkpt>
      <trkpt lat="46.29493" lon="6.49107">
        <ele>1177.27</ele>
        <time>2019-02-07T09:32:55Z</time>
      </trkpt>
      <trkpt lat="46.29492" lon="6.49103">
        <ele>1179.19</ele>
        <time>2019-02-07T09:32:59Z</time>
      </trkpt>
      <trkpt lat="46.29487" lon="6.49089">
        <ele>1179.67</ele>
        <time>2019-02-07T09:33:11Z</time>
      </trkpt>
      <trkpt lat="46.29485" lon="6.49079">
        <ele>1179.19</ele>
        <time>2019-02-07T09:33:19Z</time>
      </trkpt>
      <trkpt lat="46.29484" lon="6.49074">
        <ele>1179.19</ele>
        <time>2019-02-07T09:33:22Z</time>
      </trkpt>
      <trkpt lat="46.29483" lon="6.49069">
        <ele>1179.67</ele>
        <time>2019-02-07T09:33:26Z</time>
      </trkpt>
      <trkpt lat="46.29481" lon="6.49066">
        <ele>1177.75</ele>
        <time>2019-02-07T09:33:29Z</time>
      </trkpt>
      <trkpt lat="46.29475" lon="6.49054">
        <ele>1177.75</ele>
        <time>2019-02-07T09:33:40Z</time>
      </trkpt>
      <trkpt lat="46.29465" lon="6.49044">
        <ele>1176.79</ele>
        <time>2019-02-07T09:33:51Z</time>
      </trkpt>
      <trkpt lat="46.29455" lon="6.49035">
        <ele>1176.31</ele>
        <time>2019-02-07T09:34:02Z</time>
      </trkpt>
      <trkpt lat="46.29453" lon="6.49032">
        <ele>1176.79</ele>
        <time>2019-02-07T09:34:05Z</time>
      </trkpt>
      <trkpt lat="46.29446" lon="6.4903">
        <ele>1176.79</ele>
        <time>2019-02-07T09:34:18Z</time>
      </trkpt>
      <trkpt lat="46.29445" lon="6.49031">
        <ele>1176.79</ele>
        <time>2019-02-07T09:34:20Z</time>
      </trkpt>
      <trkpt lat="46.29439" lon="6.49039">
        <ele>1176.79</ele>
        <time>2019-02-07T09:34:32Z</time>
      </trkpt>
      <trkpt lat="46.29434" lon="6.49049">
        <ele>1177.27</ele>
        <time>2019-02-07T09:34:44Z</time>
      </trkpt>
      <trkpt lat="46.29435" lon="6.49052">
        <ele>1177.75</ele>
        <time>2019-02-07T09:34:57Z</time>
      </trkpt>
      <trkpt lat="46.29429" lon="6.49059">
        <ele>1179.67</ele>
        <time>2019-02-07T09:35:12Z</time>
      </trkpt>
      <trkpt lat="46.29425" lon="6.49063">
        <ele>1180.16</ele>
        <time>2019-02-07T09:35:22Z</time>
      </trkpt>
      <trkpt lat="46.29423" lon="6.49062">
        <ele>1181.12</ele>
        <time>2019-02-07T09:35:35Z</time>
      </trkpt>
      <trkpt lat="46.29417" lon="6.4906">
        <ele>1182.08</ele>
        <time>2019-02-07T09:35:45Z</time>
      </trkpt>
      <trkpt lat="46.29413" lon="6.49057">
        <ele>1183.04</ele>
        <time>2019-02-07T09:35:52Z</time>
      </trkpt>
      <trkpt lat="46.29407" lon="6.49053">
        <ele>1184</ele>
        <time>2019-02-07T09:36:05Z</time>
      </trkpt>
      <trkpt lat="46.29402" lon="6.49057">
        <ele>1184.96</ele>
        <time>2019-02-07T09:36:14Z</time>
      </trkpt>
      <trkpt lat="46.29401" lon="6.49056">
        <ele>1183.04</ele>
        <time>2019-02-07T09:36:21Z</time>
      </trkpt>
      <trkpt lat="46.29401" lon="6.49056">
        <ele>1184.48</ele>
        <time>2019-02-07T09:36:23Z</time>
      </trkpt>
      <trkpt lat="46.29394" lon="6.49047">
        <ele>1184.48</ele>
        <time>2019-02-07T09:36:33Z</time>
      </trkpt>
      <trkpt lat="46.2939" lon="6.49041">
        <ele>1184.96</ele>
        <time>2019-02-07T09:36:45Z</time>
      </trkpt>
      <trkpt lat="46.29386" lon="6.49039">
        <ele>1187.85</ele>
        <time>2019-02-07T09:36:53Z</time>
      </trkpt>
      <trkpt lat="46.29381" lon="6.49042">
        <ele>1187.37</ele>
        <time>2019-02-07T09:37:03Z</time>
      </trkpt>
      <trkpt lat="46.29375" lon="6.49049">
        <ele>1185.92</ele>
        <time>2019-02-07T09:37:16Z</time>
      </trkpt>
      <trkpt lat="46.29367" lon="6.49055">
        <ele>1185.44</ele>
        <time>2019-02-07T09:37:28Z</time>
      </trkpt>
      <trkpt lat="46.29364" lon="6.49064">
        <ele>1185.92</ele>
        <time>2019-02-07T09:37:39Z</time>
      </trkpt>
      <trkpt lat="46.29362" lon="6.49077">
        <ele>1185.44</ele>
        <time>2019-02-07T09:37:50Z</time>
      </trkpt>
      <trkpt lat="46.29356" lon="6.4908">
        <ele>1184.96</ele>
        <time>2019-02-07T09:38:02Z</time>
      </trkpt>
      <trkpt lat="46.29355" lon="6.49081">
        <ele>1184.96</ele>
        <time>2019-02-07T09:38:04Z</time>
      </trkpt>
      <trkpt lat="46.29352" lon="6.4908">
        <ele>1184.96</ele>
        <time>2019-02-07T09:38:08Z</time>
      </trkpt>
      <trkpt lat="46.29348" lon="6.49081">
        <ele>1186.4</ele>
        <time>2019-02-07T09:38:12Z</time>
      </trkpt>
      <trkpt lat="46.29345" lon="6.49082">
        <ele>1185.92</ele>
        <time>2019-02-07T09:38:16Z</time>
      </trkpt>
      <trkpt lat="46.29337" lon="6.49087">
        <ele>1187.37</ele>
        <time>2019-02-07T09:38:28Z</time>
      </trkpt>
      <trkpt lat="46.29333" lon="6.4909">
        <ele>1186.4</ele>
        <time>2019-02-07T09:38:38Z</time>
      </trkpt>
      <trkpt lat="46.29322" lon="6.49094">
        <ele>1186.88</ele>
        <time>2019-02-07T09:38:53Z</time>
      </trkpt>
      <trkpt lat="46.29312" lon="6.49095">
        <ele>1187.85</ele>
        <time>2019-02-07T09:39:04Z</time>
      </trkpt>
      <trkpt lat="46.29304" lon="6.49089">
        <ele>1188.33</ele>
        <time>2019-02-07T09:39:17Z</time>
      </trkpt>
      <trkpt lat="46.29302" lon="6.49087">
        <ele>1189.29</ele>
        <time>2019-02-07T09:39:20Z</time>
      </trkpt>
      <trkpt lat="46.29293" lon="6.49078">
        <ele>1189.77</ele>
        <time>2019-02-07T09:39:33Z</time>
      </trkpt>
      <trkpt lat="46.29288" lon="6.4907">
        <ele>1190.73</ele>
        <time>2019-02-07T09:39:43Z</time>
      </trkpt>
      <trkpt lat="46.29284" lon="6.49064">
        <ele>1191.21</ele>
        <time>2019-02-07T09:39:52Z</time>
      </trkpt>
      <trkpt lat="46.29277" lon="6.49054">
        <ele>1193.13</ele>
        <time>2019-02-07T09:40:06Z</time>
      </trkpt>
      <trkpt lat="46.29271" lon="6.49049">
        <ele>1194.09</ele>
        <time>2019-02-07T09:40:17Z</time>
      </trkpt>
      <trkpt lat="46.29268" lon="6.49044">
        <ele>1194.58</ele>
        <time>2019-02-07T09:40:25Z</time>
      </trkpt>
      <trkpt lat="46.29259" lon="6.4904">
        <ele>1194.58</ele>
        <time>2019-02-07T09:40:36Z</time>
      </trkpt>
      <trkpt lat="46.29255" lon="6.49038">
        <ele>1196.5</ele>
        <time>2019-02-07T09:40:48Z</time>
      </trkpt>
      <trkpt lat="46.29246" lon="6.49035">
        <ele>1198.42</ele>
        <time>2019-02-07T09:41:02Z</time>
      </trkpt>
      <trkpt lat="46.29238" lon="6.49032">
        <ele>1199.38</ele>
        <time>2019-02-07T09:41:13Z</time>
      </trkpt>
      <trkpt lat="46.29233" lon="6.49032">
        <ele>1199.86</ele>
        <time>2019-02-07T09:41:23Z</time>
      </trkpt>
      <trkpt lat="46.29224" lon="6.49034">
        <ele>1201.79</ele>
        <time>2019-02-07T09:41:34Z</time>
      </trkpt>
      <trkpt lat="46.29222" lon="6.49036">
        <ele>1201.79</ele>
        <time>2019-02-07T09:41:39Z</time>
      </trkpt>
      <trkpt lat="46.29216" lon="6.49044">
        <ele>1201.3</ele>
        <time>2019-02-07T09:41:50Z</time>
      </trkpt>
      <trkpt lat="46.29213" lon="6.49049">
        <ele>1201.79</ele>
        <time>2019-02-07T09:41:54Z</time>
      </trkpt>
      <trkpt lat="46.29212" lon="6.49051">
        <ele>1202.27</ele>
        <time>2019-02-07T09:41:56Z</time>
      </trkpt>
      <trkpt lat="46.29209" lon="6.49059">
        <ele>1201.79</ele>
        <time>2019-02-07T09:42:07Z</time>
      </trkpt>
      <trkpt lat="46.29202" lon="6.49061">
        <ele>1199.86</ele>
        <time>2019-02-07T09:42:17Z</time>
      </trkpt>
      <trkpt lat="46.29197" lon="6.4906">
        <ele>1199.86</ele>
        <time>2019-02-07T09:42:27Z</time>
      </trkpt>
      <trkpt lat="46.29193" lon="6.49057">
        <ele>1199.38</ele>
        <time>2019-02-07T09:42:41Z</time>
      </trkpt>
      <trkpt lat="46.29188" lon="6.49055">
        <ele>1199.86</ele>
        <time>2019-02-07T09:42:55Z</time>
      </trkpt>
      <trkpt lat="46.29186" lon="6.49056">
        <ele>1199.38</ele>
        <time>2019-02-07T09:43:03Z</time>
      </trkpt>
      <trkpt lat="46.29183" lon="6.49057">
        <ele>1199.38</ele>
        <time>2019-02-07T09:43:16Z</time>
      </trkpt>
      <trkpt lat="46.29183" lon="6.49059">
        <ele>1200.34</ele>
        <time>2019-02-07T09:43:34Z</time>
      </trkpt>
      <trkpt lat="46.29181" lon="6.49066">
        <ele>1200.82</ele>
        <time>2019-02-07T09:43:48Z</time>
      </trkpt>
      <trkpt lat="46.29177" lon="6.49068">
        <ele>1200.82</ele>
        <time>2019-02-07T09:43:59Z</time>
      </trkpt>
      <trkpt lat="46.29176" lon="6.49069">
        <ele>1200.82</ele>
        <time>2019-02-07T09:44:12Z</time>
      </trkpt>
      <trkpt lat="46.29176" lon="6.49068">
        <ele>1200.34</ele>
        <time>2019-02-07T09:45:22Z</time>
      </trkpt>
      <trkpt lat="46.29174" lon="6.49069">
        <ele>1200.34</ele>
        <time>2019-02-07T09:46:28Z</time>
      </trkpt>
      <trkpt lat="46.29174" lon="6.49071">
        <ele>1200.82</ele>
        <time>2019-02-07T09:48:27Z</time>
      </trkpt>
      <trkpt lat="46.29174" lon="6.49073">
        <ele>1200.34</ele>
        <time>2019-02-07T09:49:12Z</time>
      </trkpt>
      <trkpt lat="46.29173" lon="6.49072">
        <ele>1201.3</ele>
        <time>2019-02-07T09:49:54Z</time>
      </trkpt>
      <trkpt lat="46.29176" lon="6.49075">
        <ele>1201.3</ele>
        <time>2019-02-07T09:50:03Z</time>
      </trkpt>
      <trkpt lat="46.29177" lon="6.49077">
        <ele>1200.34</ele>
        <time>2019-02-07T09:50:05Z</time>
      </trkpt>
      <trkpt lat="46.29174" lon="6.49086">
        <ele>1202.75</ele>
        <time>2019-02-07T09:50:15Z</time>
      </trkpt>
      <trkpt lat="46.29172" lon="6.49091">
        <ele>1203.71</ele>
        <time>2019-02-07T09:50:21Z</time>
      </trkpt>
      <trkpt lat="46.2917" lon="6.49098">
        <ele>1204.67</ele>
        <time>2019-02-07T09:50:30Z</time>
      </trkpt>
      <trkpt lat="46.29168" lon="6.49105">
        <ele>1206.11</ele>
        <time>2019-02-07T09:50:39Z</time>
      </trkpt>
      <trkpt lat="46.29168" lon="6.49106">
        <ele>1205.63</ele>
        <time>2019-02-07T09:50:58Z</time>
      </trkpt>
      <trkpt lat="46.29166" lon="6.49107">
        <ele>1206.11</ele>
        <time>2019-02-07T09:51:16Z</time>
      </trkpt>
      <trkpt lat="46.29164" lon="6.49113">
        <ele>1207.07</ele>
        <time>2019-02-07T09:51:36Z</time>
      </trkpt>
      <trkpt lat="46.29161" lon="6.49119">
        <ele>1208.03</ele>
        <time>2019-02-07T09:51:46Z</time>
      </trkpt>
      <trkpt lat="46.2916" lon="6.49123">
        <ele>1208.51</ele>
        <time>2019-02-07T09:51:51Z</time>
      </trkpt>
      <trkpt lat="46.29154" lon="6.49129">
        <ele>1209</ele>
        <time>2019-02-07T09:52:00Z</time>
      </trkpt>
      <trkpt lat="46.29153" lon="6.4913">
        <ele>1209</ele>
        <time>2019-02-07T09:52:02Z</time>
      </trkpt>
      <trkpt lat="46.29147" lon="6.49133">
        <ele>1210.92</ele>
        <time>2019-02-07T09:52:11Z</time>
      </trkpt>
      <trkpt lat="46.29147" lon="6.49134">
        <ele>1210.92</ele>
        <time>2019-02-07T09:52:14Z</time>
      </trkpt>
      <trkpt lat="46.29143" lon="6.49136">
        <ele>1212.36</ele>
        <time>2019-02-07T09:52:21Z</time>
      </trkpt>
      <trkpt lat="46.29138" lon="6.49139">
        <ele>1214.28</ele>
        <time>2019-02-07T09:52:35Z</time>
      </trkpt>
      <trkpt lat="46.29133" lon="6.49142">
        <ele>1216.21</ele>
        <time>2019-02-07T09:52:47Z</time>
      </trkpt>
      <trkpt lat="46.29126" lon="6.49146">
        <ele>1216.21</ele>
        <time>2019-02-07T09:52:57Z</time>
      </trkpt>
      <trkpt lat="46.29119" lon="6.49148">
        <ele>1217.65</ele>
        <time>2019-02-07T09:53:08Z</time>
      </trkpt>
      <trkpt lat="46.29116" lon="6.49151">
        <ele>1219.09</ele>
        <time>2019-02-07T09:53:20Z</time>
      </trkpt>
      <trkpt lat="46.29112" lon="6.49153">
        <ele>1220.05</ele>
        <time>2019-02-07T09:53:26Z</time>
      </trkpt>
      <trkpt lat="46.29106" lon="6.49156">
        <ele>1221.01</ele>
        <time>2019-02-07T09:53:37Z</time>
      </trkpt>
      <trkpt lat="46.29101" lon="6.49158">
        <ele>1221.97</ele>
        <time>2019-02-07T09:53:49Z</time>
      </trkpt>
      <trkpt lat="46.29099" lon="6.49159">
        <ele>1223.42</ele>
        <time>2019-02-07T09:53:52Z</time>
      </trkpt>
      <trkpt lat="46.29093" lon="6.49161">
        <ele>1225.34</ele>
        <time>2019-02-07T09:54:03Z</time>
      </trkpt>
      <trkpt lat="46.29092" lon="6.49163">
        <ele>1226.3</ele>
        <time>2019-02-07T09:54:09Z</time>
      </trkpt>
      <trkpt lat="46.29089" lon="6.49165">
        <ele>1227.74</ele>
        <time>2019-02-07T09:54:16Z</time>
      </trkpt>
      <trkpt lat="46.29084" lon="6.49165">
        <ele>1229.66</ele>
        <time>2019-02-07T09:54:27Z</time>
      </trkpt>
      <trkpt lat="46.29081" lon="6.49163">
        <ele>1231.11</ele>
        <time>2019-02-07T09:54:42Z</time>
      </trkpt>
      <trkpt lat="46.29079" lon="6.49161">
        <ele>1232.07</ele>
        <time>2019-02-07T09:54:45Z</time>
      </trkpt>
      <trkpt lat="46.29074" lon="6.4916">
        <ele>1233.99</ele>
        <time>2019-02-07T09:54:56Z</time>
      </trkpt>
      <trkpt lat="46.29067" lon="6.49162">
        <ele>1235.91</ele>
        <time>2019-02-07T09:55:07Z</time>
      </trkpt>
      <trkpt lat="46.29061" lon="6.49163">
        <ele>1236.87</ele>
        <time>2019-02-07T09:55:18Z</time>
      </trkpt>
      <trkpt lat="46.29063" lon="6.49158">
        <ele>1235.91</ele>
        <time>2019-02-07T09:55:27Z</time>
      </trkpt>
      <trkpt lat="46.29064" lon="6.4916">
        <ele>1236.87</ele>
        <time>2019-02-07T09:55:44Z</time>
      </trkpt>
      <trkpt lat="46.29064" lon="6.49163">
        <ele>1237.83</ele>
        <time>2019-02-07T09:55:53Z</time>
      </trkpt>
      <trkpt lat="46.29063" lon="6.49165">
        <ele>1237.83</ele>
        <time>2019-02-07T09:55:56Z</time>
      </trkpt>
      <trkpt lat="46.29059" lon="6.49174">
        <ele>1239.28</ele>
        <time>2019-02-07T09:56:05Z</time>
      </trkpt>
      <trkpt lat="46.29059" lon="6.49186">
        <ele>1239.76</ele>
        <time>2019-02-07T09:56:16Z</time>
      </trkpt>
      <trkpt lat="46.29057" lon="6.49189">
        <ele>1239.76</ele>
        <time>2019-02-07T09:56:19Z</time>
      </trkpt>
      <trkpt lat="46.29056" lon="6.49195">
        <ele>1241.68</ele>
        <time>2019-02-07T09:56:26Z</time>
      </trkpt>
      <trkpt lat="46.29056" lon="6.49198">
        <ele>1241.68</ele>
        <time>2019-02-07T09:56:30Z</time>
      </trkpt>
      <trkpt lat="46.29056" lon="6.49198">
        <ele>1241.68</ele>
        <time>2019-02-07T09:56:53Z</time>
      </trkpt>
      <trkpt lat="46.29057" lon="6.49198">
        <ele>1241.68</ele>
        <time>2019-02-07T09:57:14Z</time>
      </trkpt>
      <trkpt lat="46.29056" lon="6.49199">
        <ele>1241.2</ele>
        <time>2019-02-07T09:57:53Z</time>
      </trkpt>
      <trkpt lat="46.29056" lon="6.49199">
        <ele>1241.68</ele>
        <time>2019-02-07T09:59:53Z</time>
      </trkpt>
      <trkpt lat="46.29057" lon="6.49199">
        <ele>1241.68</ele>
        <time>2019-02-07T10:01:27Z</time>
      </trkpt>
      <trkpt lat="46.29058" lon="6.492">
        <ele>1241.2</ele>
        <time>2019-02-07T10:03:54Z</time>
      </trkpt>
      <trkpt lat="46.29059" lon="6.49203">
        <ele>1242.16</ele>
        <time>2019-02-07T10:04:52Z</time>
      </trkpt>
      <trkpt lat="46.29052" lon="6.49213">
        <ele>1242.64</ele>
        <time>2019-02-07T10:05:01Z</time>
      </trkpt>
      <trkpt lat="46.29044" lon="6.49223">
        <ele>1244.56</ele>
        <time>2019-02-07T10:05:11Z</time>
      </trkpt>
      <trkpt lat="46.2904" lon="6.49234">
        <ele>1246.01</ele>
        <time>2019-02-07T10:05:23Z</time>
      </trkpt>
      <trkpt lat="46.29037" lon="6.49241">
        <ele>1247.45</ele>
        <time>2019-02-07T10:05:32Z</time>
      </trkpt>
      <trkpt lat="46.29037" lon="6.49247">
        <ele>1248.41</ele>
        <time>2019-02-07T10:05:41Z</time>
      </trkpt>
      <trkpt lat="46.29036" lon="6.49256">
        <ele>1249.37</ele>
        <time>2019-02-07T10:05:52Z</time>
      </trkpt>
      <trkpt lat="46.29037" lon="6.49264">
        <ele>1250.33</ele>
        <time>2019-02-07T10:06:01Z</time>
      </trkpt>
      <trkpt lat="46.29038" lon="6.4927">
        <ele>1252.74</ele>
        <time>2019-02-07T10:06:12Z</time>
      </trkpt>
      <trkpt lat="46.29039" lon="6.49276">
        <ele>1253.22</ele>
        <time>2019-02-07T10:06:23Z</time>
      </trkpt>
      <trkpt lat="46.29041" lon="6.49284">
        <ele>1254.66</ele>
        <time>2019-02-07T10:06:33Z</time>
      </trkpt>
      <trkpt lat="46.29044" lon="6.49294">
        <ele>1257.06</ele>
        <time>2019-02-07T10:06:46Z</time>
      </trkpt>
      <trkpt lat="46.29043" lon="6.49299">
        <ele>1257.54</ele>
        <time>2019-02-07T10:06:52Z</time>
      </trkpt>
      <trkpt lat="46.29041" lon="6.49309">
        <ele>1259.46</ele>
        <time>2019-02-07T10:07:05Z</time>
      </trkpt>
      <trkpt lat="46.29048" lon="6.49315">
        <ele>1260.43</ele>
        <time>2019-02-07T10:07:14Z</time>
      </trkpt>
      <trkpt lat="46.29051" lon="6.49323">
        <ele>1261.87</ele>
        <time>2019-02-07T10:07:24Z</time>
      </trkpt>
      <trkpt lat="46.29052" lon="6.49336">
        <ele>1263.79</ele>
        <time>2019-02-07T10:07:36Z</time>
      </trkpt>
      <trkpt lat="46.29052" lon="6.49341">
        <ele>1263.31</ele>
        <time>2019-02-07T10:07:39Z</time>
      </trkpt>
      <trkpt lat="46.29051" lon="6.49345">
        <ele>1263.79</ele>
        <time>2019-02-07T10:07:42Z</time>
      </trkpt>
      <trkpt lat="46.29049" lon="6.49348">
        <ele>1264.27</ele>
        <time>2019-02-07T10:07:45Z</time>
      </trkpt>
      <trkpt lat="46.29044" lon="6.49356">
        <ele>1265.23</ele>
        <time>2019-02-07T10:07:55Z</time>
      </trkpt>
      <trkpt lat="46.2904" lon="6.49362">
        <ele>1266.19</ele>
        <time>2019-02-07T10:08:05Z</time>
      </trkpt>
      <trkpt lat="46.29038" lon="6.49368">
        <ele>1267.64</ele>
        <time>2019-02-07T10:08:17Z</time>
      </trkpt>
      <trkpt lat="46.29038" lon="6.49368">
        <ele>1266.67</ele>
        <time>2019-02-07T10:09:36Z</time>
      </trkpt>
      <trkpt lat="46.29038" lon="6.49372">
        <ele>1267.64</ele>
        <time>2019-02-07T10:09:54Z</time>
      </trkpt>
      <trkpt lat="46.29038" lon="6.49378">
        <ele>1269.08</ele>
        <time>2019-02-07T10:10:05Z</time>
      </trkpt>
      <trkpt lat="46.29044" lon="6.49387">
        <ele>1270.52</ele>
        <time>2019-02-07T10:10:17Z</time>
      </trkpt>
      <trkpt lat="46.29047" lon="6.49393">
        <ele>1271.96</ele>
        <time>2019-02-07T10:10:29Z</time>
      </trkpt>
      <trkpt lat="46.29047" lon="6.49405">
        <ele>1273.4</ele>
        <time>2019-02-07T10:10:40Z</time>
      </trkpt>
      <trkpt lat="46.29048" lon="6.49411">
        <ele>1274.36</ele>
        <time>2019-02-07T10:10:46Z</time>
      </trkpt>
      <trkpt lat="46.29045" lon="6.49423">
        <ele>1275.81</ele>
        <time>2019-02-07T10:10:58Z</time>
      </trkpt>
      <trkpt lat="46.29051" lon="6.4943">
        <ele>1277.73</ele>
        <time>2019-02-07T10:11:09Z</time>
      </trkpt>
      <trkpt lat="46.2905" lon="6.49439">
        <ele>1279.65</ele>
        <time>2019-02-07T10:11:21Z</time>
      </trkpt>
      <trkpt lat="46.2905" lon="6.49439">
        <ele>1279.65</ele>
        <time>2019-02-07T10:11:22Z</time>
      </trkpt>
      <trkpt lat="46.29047" lon="6.49445">
        <ele>1281.57</ele>
        <time>2019-02-07T10:11:33Z</time>
      </trkpt>
      <trkpt lat="46.29049" lon="6.49451">
        <ele>1282.06</ele>
        <time>2019-02-07T10:11:45Z</time>
      </trkpt>
      <trkpt lat="46.2905" lon="6.49452">
        <ele>1282.54</ele>
        <time>2019-02-07T10:11:46Z</time>
      </trkpt>
      <trkpt lat="46.29051" lon="6.49455">
        <ele>1283.02</ele>
        <time>2019-02-07T10:11:50Z</time>
      </trkpt>
      <trkpt lat="46.29057" lon="6.49464">
        <ele>1284.46</ele>
        <time>2019-02-07T10:12:01Z</time>
      </trkpt>
      <trkpt lat="46.29058" lon="6.49465">
        <ele>1283.98</ele>
        <time>2019-02-07T10:12:02Z</time>
      </trkpt>
      <trkpt lat="46.29059" lon="6.4947">
        <ele>1284.94</ele>
        <time>2019-02-07T10:12:10Z</time>
      </trkpt>
      <trkpt lat="46.29054" lon="6.49479">
        <ele>1285.9</ele>
        <time>2019-02-07T10:12:21Z</time>
      </trkpt>
      <trkpt lat="46.29051" lon="6.49481">
        <ele>1285.9</ele>
        <time>2019-02-07T10:12:25Z</time>
      </trkpt>
      <trkpt lat="46.29046" lon="6.49491">
        <ele>1287.82</ele>
        <time>2019-02-07T10:12:36Z</time>
      </trkpt>
      <trkpt lat="46.2904" lon="6.49499">
        <ele>1289.75</ele>
        <time>2019-02-07T10:12:49Z</time>
      </trkpt>
      <trkpt lat="46.29037" lon="6.49502">
        <ele>1290.71</ele>
        <time>2019-02-07T10:13:00Z</time>
      </trkpt>
      <trkpt lat="46.29033" lon="6.49506">
        <ele>1291.67</ele>
        <time>2019-02-07T10:13:11Z</time>
      </trkpt>
      <trkpt lat="46.29032" lon="6.4951">
        <ele>1292.15</ele>
        <time>2019-02-07T10:13:22Z</time>
      </trkpt>
      <trkpt lat="46.29033" lon="6.49511">
        <ele>1293.11</ele>
        <time>2019-02-07T10:13:28Z</time>
      </trkpt>
      <trkpt lat="46.29028" lon="6.49518">
        <ele>1295.03</ele>
        <time>2019-02-07T10:13:41Z</time>
      </trkpt>
      <trkpt lat="46.29024" lon="6.49523">
        <ele>1295.99</ele>
        <time>2019-02-07T10:13:50Z</time>
      </trkpt>
      <trkpt lat="46.29024" lon="6.49527">
        <ele>1296.48</ele>
        <time>2019-02-07T10:13:53Z</time>
      </trkpt>
      <trkpt lat="46.2902" lon="6.49539">
        <ele>1297.92</ele>
        <time>2019-02-07T10:14:06Z</time>
      </trkpt>
      <trkpt lat="46.2902" lon="6.4954">
        <ele>1297.92</ele>
        <time>2019-02-07T10:14:07Z</time>
      </trkpt>
      <trkpt lat="46.29018" lon="6.49548">
        <ele>1299.36</ele>
        <time>2019-02-07T10:14:18Z</time>
      </trkpt>
      <trkpt lat="46.29015" lon="6.49559">
        <ele>1301.28</ele>
        <time>2019-02-07T10:14:31Z</time>
      </trkpt>
      <trkpt lat="46.29013" lon="6.49572">
        <ele>1302.24</ele>
        <time>2019-02-07T10:14:44Z</time>
      </trkpt>
      <trkpt lat="46.2901" lon="6.4958">
        <ele>1303.69</ele>
        <time>2019-02-07T10:14:54Z</time>
      </trkpt>
      <trkpt lat="46.29007" lon="6.49586">
        <ele>1304.65</ele>
        <time>2019-02-07T10:15:03Z</time>
      </trkpt>
      <trkpt lat="46.29002" lon="6.49596">
        <ele>1304.17</ele>
        <time>2019-02-07T10:15:15Z</time>
      </trkpt>
      <trkpt lat="46.28994" lon="6.49608">
        <ele>1305.13</ele>
        <time>2019-02-07T10:15:28Z</time>
      </trkpt>
      <trkpt lat="46.28989" lon="6.49617">
        <ele>1306.57</ele>
        <time>2019-02-07T10:15:42Z</time>
      </trkpt>
      <trkpt lat="46.28985" lon="6.4963">
        <ele>1308.97</ele>
        <time>2019-02-07T10:15:55Z</time>
      </trkpt>
      <trkpt lat="46.28982" lon="6.49637">
        <ele>1310.41</ele>
        <time>2019-02-07T10:16:05Z</time>
      </trkpt>
      <trkpt lat="46.2898" lon="6.49639">
        <ele>1309.93</ele>
        <time>2019-02-07T10:16:19Z</time>
      </trkpt>
      <trkpt lat="46.2898" lon="6.49639">
        <ele>1309.93</ele>
        <time>2019-02-07T10:16:56Z</time>
      </trkpt>
      <trkpt lat="46.2898" lon="6.49639">
        <ele>1309.93</ele>
        <time>2019-02-07T10:18:50Z</time>
      </trkpt>
      <trkpt lat="46.2898" lon="6.49638">
        <ele>1309.93</ele>
        <time>2019-02-07T10:19:24Z</time>
      </trkpt>
      <trkpt lat="46.28978" lon="6.49635">
        <ele>1310.41</ele>
        <time>2019-02-07T10:19:43Z</time>
      </trkpt>
      <trkpt lat="46.2897" lon="6.49625">
        <ele>1312.34</ele>
        <time>2019-02-07T10:19:56Z</time>
      </trkpt>
      <trkpt lat="46.28967" lon="6.49621">
        <ele>1313.3</ele>
        <time>2019-02-07T10:20:06Z</time>
      </trkpt>
      <trkpt lat="46.28965" lon="6.49619">
        <ele>1312.82</ele>
        <time>2019-02-07T10:20:09Z</time>
      </trkpt>
      <trkpt lat="46.28959" lon="6.49608">
        <ele>1313.78</ele>
        <time>2019-02-07T10:20:20Z</time>
      </trkpt>
      <trkpt lat="46.28954" lon="6.49599">
        <ele>1314.74</ele>
        <time>2019-02-07T10:20:32Z</time>
      </trkpt>
      <trkpt lat="46.28952" lon="6.49591">
        <ele>1314.74</ele>
        <time>2019-02-07T10:20:40Z</time>
      </trkpt>
      <trkpt lat="46.2895" lon="6.49588">
        <ele>1315.22</ele>
        <time>2019-02-07T10:20:43Z</time>
      </trkpt>
      <trkpt lat="46.28948" lon="6.49584">
        <ele>1316.18</ele>
        <time>2019-02-07T10:20:48Z</time>
      </trkpt>
      <trkpt lat="46.28942" lon="6.49574">
        <ele>1317.14</ele>
        <time>2019-02-07T10:20:59Z</time>
      </trkpt>
      <trkpt lat="46.28938" lon="6.49565">
        <ele>1318.1</ele>
        <time>2019-02-07T10:21:10Z</time>
      </trkpt>
      <trkpt lat="46.28933" lon="6.49556">
        <ele>1318.59</ele>
        <time>2019-02-07T10:21:20Z</time>
      </trkpt>
      <trkpt lat="46.28929" lon="6.49547">
        <ele>1319.55</ele>
        <time>2019-02-07T10:21:32Z</time>
      </trkpt>
      <trkpt lat="46.28925" lon="6.49538">
        <ele>1320.99</ele>
        <time>2019-02-07T10:21:42Z</time>
      </trkpt>
      <trkpt lat="46.2892" lon="6.49524">
        <ele>1320.99</ele>
        <time>2019-02-07T10:21:55Z</time>
      </trkpt>
      <trkpt lat="46.28915" lon="6.49512">
        <ele>1321.95</ele>
        <time>2019-02-07T10:22:10Z</time>
      </trkpt>
      <trkpt lat="46.28913" lon="6.49506">
        <ele>1323.87</ele>
        <time>2019-02-07T10:22:23Z</time>
      </trkpt>
      <trkpt lat="46.28913" lon="6.49504">
        <ele>1324.35</ele>
        <time>2019-02-07T10:22:25Z</time>
      </trkpt>
      <trkpt lat="46.28906" lon="6.49493">
        <ele>1324.35</ele>
        <time>2019-02-07T10:22:34Z</time>
      </trkpt>
      <trkpt lat="46.28904" lon="6.49485">
        <ele>1324.35</ele>
        <time>2019-02-07T10:22:41Z</time>
      </trkpt>
      <trkpt lat="46.28898" lon="6.49477">
        <ele>1324.83</ele>
        <time>2019-02-07T10:22:49Z</time>
      </trkpt>
      <trkpt lat="46.28894" lon="6.49465">
        <ele>1324.83</ele>
        <time>2019-02-07T10:23:02Z</time>
      </trkpt>
      <trkpt lat="46.28888" lon="6.49461">
        <ele>1326.28</ele>
        <time>2019-02-07T10:23:13Z</time>
      </trkpt>
      <trkpt lat="46.28882" lon="6.49459">
        <ele>1327.24</ele>
        <time>2019-02-07T10:23:25Z</time>
      </trkpt>
      <trkpt lat="46.28879" lon="6.49458">
        <ele>1327.72</ele>
        <time>2019-02-07T10:23:31Z</time>
      </trkpt>
      <trkpt lat="46.28877" lon="6.49457">
        <ele>1328.68</ele>
        <time>2019-02-07T10:23:35Z</time>
      </trkpt>
      <trkpt lat="46.2887" lon="6.49453">
        <ele>1329.16</ele>
        <time>2019-02-07T10:23:46Z</time>
      </trkpt>
      <trkpt lat="46.28867" lon="6.49451">
        <ele>1329.64</ele>
        <time>2019-02-07T10:23:57Z</time>
      </trkpt>
      <trkpt lat="46.28862" lon="6.49448">
        <ele>1331.08</ele>
        <time>2019-02-07T10:24:09Z</time>
      </trkpt>
      <trkpt lat="46.28858" lon="6.49446">
        <ele>1333.97</ele>
        <time>2019-02-07T10:24:20Z</time>
      </trkpt>
      <trkpt lat="46.2885" lon="6.49443">
        <ele>1334.93</ele>
        <time>2019-02-07T10:24:31Z</time>
      </trkpt>
      <trkpt lat="46.28844" lon="6.4944">
        <ele>1335.41</ele>
        <time>2019-02-07T10:24:43Z</time>
      </trkpt>
      <trkpt lat="46.2884" lon="6.49437">
        <ele>1336.37</ele>
        <time>2019-02-07T10:24:57Z</time>
      </trkpt>
      <trkpt lat="46.28835" lon="6.49433">
        <ele>1337.81</ele>
        <time>2019-02-07T10:25:06Z</time>
      </trkpt>
      <trkpt lat="46.28831" lon="6.49429">
        <ele>1339.25</ele>
        <time>2019-02-07T10:25:18Z</time>
      </trkpt>
      <trkpt lat="46.28827" lon="6.49421">
        <ele>1339.73</ele>
        <time>2019-02-07T10:25:30Z</time>
      </trkpt>
      <trkpt lat="46.28823" lon="6.49412">
        <ele>1340.7</ele>
        <time>2019-02-07T10:25:40Z</time>
      </trkpt>
      <trkpt lat="46.2882" lon="6.49401">
        <ele>1341.18</ele>
        <time>2019-02-07T10:25:53Z</time>
      </trkpt>
      <trkpt lat="46.28816" lon="6.49393">
        <ele>1341.66</ele>
        <time>2019-02-07T10:26:04Z</time>
      </trkpt>
      <trkpt lat="46.28812" lon="6.49386">
        <ele>1343.1</ele>
        <time>2019-02-07T10:26:15Z</time>
      </trkpt>
      <trkpt lat="46.28811" lon="6.49384">
        <ele>1345.02</ele>
        <time>2019-02-07T10:26:29Z</time>
      </trkpt>
      <trkpt lat="46.28811" lon="6.49384">
        <ele>1344.54</ele>
        <time>2019-02-07T10:27:25Z</time>
      </trkpt>
      <trkpt lat="46.28813" lon="6.49388">
        <ele>1344.06</ele>
        <time>2019-02-07T10:27:37Z</time>
      </trkpt>
      <trkpt lat="46.28813" lon="6.49389">
        <ele>1345.02</ele>
        <time>2019-02-07T10:29:06Z</time>
      </trkpt>
      <trkpt lat="46.2881" lon="6.49385">
        <ele>1345.5</ele>
        <time>2019-02-07T10:29:19Z</time>
      </trkpt>
      <trkpt lat="46.28803" lon="6.49374">
        <ele>1346.94</ele>
        <time>2019-02-07T10:29:35Z</time>
      </trkpt>
      <trkpt lat="46.28802" lon="6.49374">
        <ele>1346.46</ele>
        <time>2019-02-07T10:29:38Z</time>
      </trkpt>
      <trkpt lat="46.28793" lon="6.49365">
        <ele>1348.87</ele>
        <time>2019-02-07T10:29:47Z</time>
      </trkpt>
      <trkpt lat="46.28789" lon="6.4936">
        <ele>1350.31</ele>
        <time>2019-02-07T10:29:53Z</time>
      </trkpt>
      <trkpt lat="46.2878" lon="6.49352">
        <ele>1351.27</ele>
        <time>2019-02-07T10:30:05Z</time>
      </trkpt>
      <trkpt lat="46.28774" lon="6.49347">
        <ele>1353.67</ele>
        <time>2019-02-07T10:30:17Z</time>
      </trkpt>
      <trkpt lat="46.28774" lon="6.49346">
        <ele>1354.63</ele>
        <time>2019-02-07T10:30:43Z</time>
      </trkpt>
      <trkpt lat="46.28766" lon="6.49337">
        <ele>1355.6</ele>
        <time>2019-02-07T10:30:56Z</time>
      </trkpt>
      <trkpt lat="46.2876" lon="6.4933">
        <ele>1354.15</ele>
        <time>2019-02-07T10:31:06Z</time>
      </trkpt>
      <trkpt lat="46.2876" lon="6.4933">
        <ele>1354.15</ele>
        <time>2019-02-07T10:31:07Z</time>
      </trkpt>
      <trkpt lat="46.28754" lon="6.49324">
        <ele>1354.63</ele>
        <time>2019-02-07T10:31:17Z</time>
      </trkpt>
      <trkpt lat="46.28749" lon="6.49321">
        <ele>1357.52</ele>
        <time>2019-02-07T10:31:24Z</time>
      </trkpt>
      <trkpt lat="46.28743" lon="6.49316">
        <ele>1358.48</ele>
        <time>2019-02-07T10:31:35Z</time>
      </trkpt>
      <trkpt lat="46.28736" lon="6.49308">
        <ele>1358.48</ele>
        <time>2019-02-07T10:31:47Z</time>
      </trkpt>
      <trkpt lat="46.28732" lon="6.49302">
        <ele>1359.92</ele>
        <time>2019-02-07T10:31:55Z</time>
      </trkpt>
      <trkpt lat="46.28724" lon="6.49294">
        <ele>1361.84</ele>
        <time>2019-02-07T10:32:08Z</time>
      </trkpt>
      <trkpt lat="46.28718" lon="6.49287">
        <ele>1361.36</ele>
        <time>2019-02-07T10:32:18Z</time>
      </trkpt>
      <trkpt lat="46.28711" lon="6.4928">
        <ele>1361.36</ele>
        <time>2019-02-07T10:32:29Z</time>
      </trkpt>
      <trkpt lat="46.28705" lon="6.49275">
        <ele>1361.36</ele>
        <time>2019-02-07T10:32:42Z</time>
      </trkpt>
      <trkpt lat="46.28704" lon="6.49273">
        <ele>1361.36</ele>
        <time>2019-02-07T10:33:31Z</time>
      </trkpt>
      <trkpt lat="46.28698" lon="6.49268">
        <ele>1362.33</ele>
        <time>2019-02-07T10:33:38Z</time>
      </trkpt>
      <trkpt lat="46.28688" lon="6.4926">
        <ele>1361.84</ele>
        <time>2019-02-07T10:33:50Z</time>
      </trkpt>
      <trkpt lat="46.28681" lon="6.49253">
        <ele>1361.84</ele>
        <time>2019-02-07T10:34:03Z</time>
      </trkpt>
      <trkpt lat="46.28681" lon="6.49253">
        <ele>1360.4</ele>
        <time>2019-02-07T10:34:19Z</time>
      </trkpt>
      <trkpt lat="46.28679" lon="6.49251">
        <ele>1359.92</ele>
        <time>2019-02-07T10:34:36Z</time>
      </trkpt>
      <trkpt lat="46.28674" lon="6.49245">
        <ele>1362.81</ele>
        <time>2019-02-07T10:34:42Z</time>
      </trkpt>
      <trkpt lat="46.28673" lon="6.49244">
        <ele>1361.84</ele>
        <time>2019-02-07T10:34:44Z</time>
      </trkpt>
      <trkpt lat="46.28661" lon="6.49232">
        <ele>1361.36</ele>
        <time>2019-02-07T10:34:59Z</time>
      </trkpt>
      <trkpt lat="46.28657" lon="6.49229">
        <ele>1361.36</ele>
        <time>2019-02-07T10:35:03Z</time>
      </trkpt>
      <trkpt lat="46.28647" lon="6.49218">
        <ele>1358.96</ele>
        <time>2019-02-07T10:35:15Z</time>
      </trkpt>
      <trkpt lat="46.28644" lon="6.49215">
        <ele>1359.92</ele>
        <time>2019-02-07T10:35:19Z</time>
      </trkpt>
      <trkpt lat="46.28643" lon="6.49215">
        <ele>1360.4</ele>
        <time>2019-02-07T10:35:20Z</time>
      </trkpt>
      <trkpt lat="46.28638" lon="6.4921">
        <ele>1360.4</ele>
        <time>2019-02-07T10:35:25Z</time>
      </trkpt>
      <trkpt lat="46.28636" lon="6.49207">
        <ele>1360.88</ele>
        <time>2019-02-07T10:35:28Z</time>
      </trkpt>
      <trkpt lat="46.28634" lon="6.49206">
        <ele>1360.4</ele>
        <time>2019-02-07T10:35:30Z</time>
      </trkpt>
      <trkpt lat="46.28632" lon="6.49202">
        <ele>1360.88</ele>
        <time>2019-02-07T10:35:33Z</time>
      </trkpt>
      <trkpt lat="46.28624" lon="6.49195">
        <ele>1361.36</ele>
        <time>2019-02-07T10:35:41Z</time>
      </trkpt>
      <trkpt lat="46.28619" lon="6.4919">
        <ele>1360.4</ele>
        <time>2019-02-07T10:35:47Z</time>
      </trkpt>
      <trkpt lat="46.28614" lon="6.49187">
        <ele>1361.36</ele>
        <time>2019-02-07T10:35:52Z</time>
      </trkpt>
      <trkpt lat="46.28616" lon="6.49181">
        <ele>1361.36</ele>
        <time>2019-02-07T10:36:04Z</time>
      </trkpt>
      <trkpt lat="46.28617" lon="6.49177">
        <ele>1359.44</ele>
        <time>2019-02-07T10:36:08Z</time>
      </trkpt>
      <trkpt lat="46.28617" lon="6.49174">
        <ele>1358.96</ele>
        <time>2019-02-07T10:36:10Z</time>
      </trkpt>
      <trkpt lat="46.28618" lon="6.49168">
        <ele>1358.96</ele>
        <time>2019-02-07T10:36:14Z</time>
      </trkpt>
      <trkpt lat="46.28618" lon="6.49155">
        <ele>1359.44</ele>
        <time>2019-02-07T10:36:23Z</time>
      </trkpt>
      <trkpt lat="46.28617" lon="6.49147">
        <ele>1359.92</ele>
        <time>2019-02-07T10:36:29Z</time>
      </trkpt>
      <trkpt lat="46.28618" lon="6.49137">
        <ele>1359.44</ele>
        <time>2019-02-07T10:36:37Z</time>
      </trkpt>
      <trkpt lat="46.28616" lon="6.49125">
        <ele>1358.48</ele>
        <time>2019-02-07T10:36:46Z</time>
      </trkpt>
      <trkpt lat="46.28617" lon="6.49113">
        <ele>1360.4</ele>
        <time>2019-02-07T10:36:56Z</time>
      </trkpt>
      <trkpt lat="46.28616" lon="6.491">
        <ele>1360.88</ele>
        <time>2019-02-07T10:37:08Z</time>
      </trkpt>
      <trkpt lat="46.28616" lon="6.49087">
        <ele>1360.88</ele>
        <time>2019-02-07T10:37:20Z</time>
      </trkpt>
      <trkpt lat="46.28616" lon="6.4907">
        <ele>1360.4</ele>
        <time>2019-02-07T10:37:34Z</time>
      </trkpt>
      <trkpt lat="46.28616" lon="6.4906">
        <ele>1364.25</ele>
        <time>2019-02-07T10:37:42Z</time>
      </trkpt>
      <trkpt lat="46.28617" lon="6.49057">
        <ele>1360.88</ele>
        <time>2019-02-07T10:37:45Z</time>
      </trkpt>
      <trkpt lat="46.28617" lon="6.49053">
        <ele>1362.81</ele>
        <time>2019-02-07T10:37:50Z</time>
      </trkpt>
      <trkpt lat="46.28619" lon="6.49041">
        <ele>1361.36</ele>
        <time>2019-02-07T10:38:01Z</time>
      </trkpt>
      <trkpt lat="46.2862" lon="6.49037">
        <ele>1363.29</ele>
        <time>2019-02-07T10:38:05Z</time>
      </trkpt>
      <trkpt lat="46.28623" lon="6.49031">
        <ele>1362.81</ele>
        <time>2019-02-07T10:38:13Z</time>
      </trkpt>
      <trkpt lat="46.28625" lon="6.49029">
        <ele>1362.33</ele>
        <time>2019-02-07T10:38:29Z</time>
      </trkpt>
      <trkpt lat="46.28626" lon="6.49028">
        <ele>1361.36</ele>
        <time>2019-02-07T10:40:46Z</time>
      </trkpt>
      <trkpt lat="46.28624" lon="6.49038">
        <ele>1362.33</ele>
        <time>2019-02-07T10:41:32Z</time>
      </trkpt>
      <trkpt lat="46.28624" lon="6.49037">
        <ele>1362.81</ele>
        <time>2019-02-07T10:41:40Z</time>
      </trkpt>
      <trkpt lat="46.28623" lon="6.49039">
        <ele>1361.84</ele>
        <time>2019-02-07T10:42:11Z</time>
      </trkpt>
      <trkpt lat="46.28623" lon="6.49035">
        <ele>1362.81</ele>
        <time>2019-02-07T10:42:32Z</time>
      </trkpt>
      <trkpt lat="46.28621" lon="6.49032">
        <ele>1359.44</ele>
        <time>2019-02-07T10:42:39Z</time>
      </trkpt>
      <trkpt lat="46.28615" lon="6.49028">
        <ele>1360.4</ele>
        <time>2019-02-07T10:42:51Z</time>
      </trkpt>
      <trkpt lat="46.28608" lon="6.49023">
        <ele>1359.92</ele>
        <time>2019-02-07T10:43:03Z</time>
      </trkpt>
      <trkpt lat="46.28603" lon="6.49014">
        <ele>1359.92</ele>
        <time>2019-02-07T10:43:13Z</time>
      </trkpt>
      <trkpt lat="46.28598" lon="6.49006">
        <ele>1359.44</ele>
        <time>2019-02-07T10:43:24Z</time>
      </trkpt>
      <trkpt lat="46.28597" lon="6.49005">
        <ele>1360.88</ele>
        <time>2019-02-07T10:43:27Z</time>
      </trkpt>
      <trkpt lat="46.28593" lon="6.48998">
        <ele>1362.33</ele>
        <time>2019-02-07T10:43:39Z</time>
      </trkpt>
      <trkpt lat="46.28589" lon="6.48991">
        <ele>1363.29</ele>
        <time>2019-02-07T10:43:51Z</time>
      </trkpt>
      <trkpt lat="46.28586" lon="6.48987">
        <ele>1363.77</ele>
        <time>2019-02-07T10:44:01Z</time>
      </trkpt>
      <trkpt lat="46.2858" lon="6.48977">
        <ele>1362.33</ele>
        <time>2019-02-07T10:44:14Z</time>
      </trkpt>
      <trkpt lat="46.28579" lon="6.48968">
        <ele>1363.77</ele>
        <time>2019-02-07T10:44:25Z</time>
      </trkpt>
      <trkpt lat="46.28577" lon="6.48963">
        <ele>1364.73</ele>
        <time>2019-02-07T10:44:33Z</time>
      </trkpt>
      <trkpt lat="46.28572" lon="6.48954">
        <ele>1364.25</ele>
        <time>2019-02-07T10:44:48Z</time>
      </trkpt>
      <trkpt lat="46.28571" lon="6.48944">
        <ele>1362.33</ele>
        <time>2019-02-07T10:45:01Z</time>
      </trkpt>
      <trkpt lat="46.2857" lon="6.48942">
        <ele>1362.33</ele>
        <time>2019-02-07T10:45:17Z</time>
      </trkpt>
      <trkpt lat="46.28568" lon="6.48941">
        <ele>1361.84</ele>
        <time>2019-02-07T10:45:31Z</time>
      </trkpt>
      <trkpt lat="46.28568" lon="6.48935">
        <ele>1361.84</ele>
        <time>2019-02-07T10:46:06Z</time>
      </trkpt>
      <trkpt lat="46.28566" lon="6.48931">
        <ele>1360.88</ele>
        <time>2019-02-07T10:46:17Z</time>
      </trkpt>
      <trkpt lat="46.28566" lon="6.48931">
        <ele>1360.88</ele>
        <time>2019-02-07T10:46:41Z</time>
      </trkpt>
      <trkpt lat="46.28565" lon="6.4893">
        <ele>1359.92</ele>
        <time>2019-02-07T10:48:02Z</time>
      </trkpt>
      <trkpt lat="46.28565" lon="6.48929">
        <ele>1359.44</ele>
        <time>2019-02-07T10:49:01Z</time>
      </trkpt>
      <trkpt lat="46.2856" lon="6.48924">
        <ele>1359.92</ele>
        <time>2019-02-07T10:49:15Z</time>
      </trkpt>
      <trkpt lat="46.2855" lon="6.48923">
        <ele>1359.44</ele>
        <time>2019-02-07T10:49:28Z</time>
      </trkpt>
      <trkpt lat="46.28541" lon="6.48926">
        <ele>1358</ele>
        <time>2019-02-07T10:49:41Z</time>
      </trkpt>
      <trkpt lat="46.28535" lon="6.48926">
        <ele>1355.6</ele>
        <time>2019-02-07T10:49:51Z</time>
      </trkpt>
      <trkpt lat="46.28531" lon="6.48923">
        <ele>1358.48</ele>
        <time>2019-02-07T10:49:57Z</time>
      </trkpt>
      <trkpt lat="46.28525" lon="6.48916">
        <ele>1358</ele>
        <time>2019-02-07T10:50:08Z</time>
      </trkpt>
      <trkpt lat="46.2852" lon="6.48907">
        <ele>1358</ele>
        <time>2019-02-07T10:50:18Z</time>
      </trkpt>
      <trkpt lat="46.28518" lon="6.48906">
        <ele>1357.52</ele>
        <time>2019-02-07T10:50:20Z</time>
      </trkpt>
      <trkpt lat="46.28513" lon="6.48899">
        <ele>1358</ele>
        <time>2019-02-07T10:50:31Z</time>
      </trkpt>
      <trkpt lat="46.28507" lon="6.48893">
        <ele>1359.44</ele>
        <time>2019-02-07T10:50:45Z</time>
      </trkpt>
      <trkpt lat="46.28506" lon="6.48892">
        <ele>1359.44</ele>
        <time>2019-02-07T10:50:46Z</time>
      </trkpt>
      <trkpt lat="46.28499" lon="6.48884">
        <ele>1358.96</ele>
        <time>2019-02-07T10:50:58Z</time>
      </trkpt>
      <trkpt lat="46.2849" lon="6.48875">
        <ele>1358.96</ele>
        <time>2019-02-07T10:51:13Z</time>
      </trkpt>
      <trkpt lat="46.28484" lon="6.48868">
        <ele>1357.52</ele>
        <time>2019-02-07T10:51:26Z</time>
      </trkpt>
      <trkpt lat="46.28478" lon="6.48866">
        <ele>1357.04</ele>
        <time>2019-02-07T10:51:39Z</time>
      </trkpt>
      <trkpt lat="46.28474" lon="6.48865">
        <ele>1357.52</ele>
        <time>2019-02-07T10:51:50Z</time>
      </trkpt>
      <trkpt lat="46.28474" lon="6.48864">
        <ele>1357.04</ele>
        <time>2019-02-07T10:52:34Z</time>
      </trkpt>
      <trkpt lat="46.28471" lon="6.48865">
        <ele>1357.04</ele>
        <time>2019-02-07T10:53:00Z</time>
      </trkpt>
      <trkpt lat="46.28466" lon="6.48858">
        <ele>1355.12</ele>
        <time>2019-02-07T10:53:34Z</time>
      </trkpt>
      <trkpt lat="46.28465" lon="6.48858">
        <ele>1354.15</ele>
        <time>2019-02-07T10:53:37Z</time>
      </trkpt>
      <trkpt lat="46.28458" lon="6.48857">
        <ele>1351.75</ele>
        <time>2019-02-07T10:53:49Z</time>
      </trkpt>
      <trkpt lat="46.28451" lon="6.48856">
        <ele>1348.87</ele>
        <time>2019-02-07T10:53:59Z</time>
      </trkpt>
      <trkpt lat="46.28448" lon="6.48855">
        <ele>1348.87</ele>
        <time>2019-02-07T10:54:03Z</time>
      </trkpt>
      <trkpt lat="46.2844" lon="6.48852">
        <ele>1348.39</ele>
        <time>2019-02-07T10:54:15Z</time>
      </trkpt>
      <trkpt lat="46.28431" lon="6.48853">
        <ele>1347.91</ele>
        <time>2019-02-07T10:54:28Z</time>
      </trkpt>
      <trkpt lat="46.28423" lon="6.48854">
        <ele>1346.46</ele>
        <time>2019-02-07T10:54:39Z</time>
      </trkpt>
      <trkpt lat="46.28421" lon="6.48856">
        <ele>1345.98</ele>
        <time>2019-02-07T10:54:43Z</time>
      </trkpt>
      <trkpt lat="46.28413" lon="6.4886">
        <ele>1345.5</ele>
        <time>2019-02-07T10:54:55Z</time>
      </trkpt>
      <trkpt lat="46.28408" lon="6.48869">
        <ele>1345.02</ele>
        <time>2019-02-07T10:55:07Z</time>
      </trkpt>
      <trkpt lat="46.28404" lon="6.48879">
        <ele>1344.06</ele>
        <time>2019-02-07T10:55:18Z</time>
      </trkpt>
      <trkpt lat="46.284" lon="6.48892">
        <ele>1342.62</ele>
        <time>2019-02-07T10:55:32Z</time>
      </trkpt>
      <trkpt lat="46.28398" lon="6.48896">
        <ele>1341.66</ele>
        <time>2019-02-07T10:55:36Z</time>
      </trkpt>
      <trkpt lat="46.28397" lon="6.48898">
        <ele>1341.66</ele>
        <time>2019-02-07T10:55:38Z</time>
      </trkpt>
      <trkpt lat="46.28395" lon="6.489">
        <ele>1341.66</ele>
        <time>2019-02-07T10:55:40Z</time>
      </trkpt>
      <trkpt lat="46.28392" lon="6.48913">
        <ele>1342.62</ele>
        <time>2019-02-07T10:55:52Z</time>
      </trkpt>
      <trkpt lat="46.28391" lon="6.48917">
        <ele>1341.18</ele>
        <time>2019-02-07T10:55:56Z</time>
      </trkpt>
      <trkpt lat="46.2839" lon="6.4892">
        <ele>1340.7</ele>
        <time>2019-02-07T10:55:58Z</time>
      </trkpt>
      <trkpt lat="46.28387" lon="6.48926">
        <ele>1340.22</ele>
        <time>2019-02-07T10:56:04Z</time>
      </trkpt>
      <trkpt lat="46.28384" lon="6.48936">
        <ele>1339.73</ele>
        <time>2019-02-07T10:56:17Z</time>
      </trkpt>
      <trkpt lat="46.2838" lon="6.48944">
        <ele>1339.25</ele>
        <time>2019-02-07T10:56:26Z</time>
      </trkpt>
      <trkpt lat="46.28375" lon="6.48955">
        <ele>1340.22</ele>
        <time>2019-02-07T10:56:38Z</time>
      </trkpt>
      <trkpt lat="46.28374" lon="6.48964">
        <ele>1340.7</ele>
        <time>2019-02-07T10:56:49Z</time>
      </trkpt>
      <trkpt lat="46.28373" lon="6.48964">
        <ele>1341.66</ele>
        <time>2019-02-07T10:56:53Z</time>
      </trkpt>
      <trkpt lat="46.28373" lon="6.48965">
        <ele>1339.73</ele>
        <time>2019-02-07T10:57:12Z</time>
      </trkpt>
      <trkpt lat="46.28373" lon="6.48966">
        <ele>1340.22</ele>
        <time>2019-02-07T10:58:26Z</time>
      </trkpt>
      <trkpt lat="46.28372" lon="6.48966">
        <ele>1340.22</ele>
        <time>2019-02-07T10:59:00Z</time>
      </trkpt>
      <trkpt lat="46.28371" lon="6.48967">
        <ele>1340.7</ele>
        <time>2019-02-07T11:02:22Z</time>
      </trkpt>
      <trkpt lat="46.28372" lon="6.48975">
        <ele>1340.7</ele>
        <time>2019-02-07T11:02:35Z</time>
      </trkpt>
      <trkpt lat="46.28372" lon="6.48976">
        <ele>1340.7</ele>
        <time>2019-02-07T11:02:36Z</time>
      </trkpt>
      <trkpt lat="46.28371" lon="6.48983">
        <ele>1340.22</ele>
        <time>2019-02-07T11:02:46Z</time>
      </trkpt>
      <trkpt lat="46.28371" lon="6.48985">
        <ele>1340.7</ele>
        <time>2019-02-07T11:03:19Z</time>
      </trkpt>
      <trkpt lat="46.28373" lon="6.48986">
        <ele>1341.66</ele>
        <time>2019-02-07T11:03:22Z</time>
      </trkpt>
      <trkpt lat="46.28376" lon="6.48989">
        <ele>1341.18</ele>
        <time>2019-02-07T11:03:35Z</time>
      </trkpt>
      <trkpt lat="46.28381" lon="6.48987">
        <ele>1340.7</ele>
        <time>2019-02-07T11:03:46Z</time>
      </trkpt>
      <trkpt lat="46.28385" lon="6.48979">
        <ele>1342.14</ele>
        <time>2019-02-07T11:03:59Z</time>
      </trkpt>
      <trkpt lat="46.28389" lon="6.48981">
        <ele>1343.58</ele>
        <time>2019-02-07T11:04:10Z</time>
      </trkpt>
      <trkpt lat="46.28396" lon="6.48988">
        <ele>1345.02</ele>
        <time>2019-02-07T11:04:22Z</time>
      </trkpt>
      <trkpt lat="46.284" lon="6.48993">
        <ele>1347.43</ele>
        <time>2019-02-07T11:04:33Z</time>
      </trkpt>
      <trkpt lat="46.28405" lon="6.49001">
        <ele>1349.83</ele>
        <time>2019-02-07T11:04:44Z</time>
      </trkpt>
      <trkpt lat="46.28409" lon="6.49008">
        <ele>1350.31</ele>
        <time>2019-02-07T11:04:55Z</time>
      </trkpt>
      <trkpt lat="46.28415" lon="6.49016">
        <ele>1352.23</ele>
        <time>2019-02-07T11:05:07Z</time>
      </trkpt>
      <trkpt lat="46.28421" lon="6.49023">
        <ele>1353.67</ele>
        <time>2019-02-07T11:05:19Z</time>
      </trkpt>
      <trkpt lat="46.28424" lon="6.49027">
        <ele>1354.15</ele>
        <time>2019-02-07T11:05:24Z</time>
      </trkpt>
      <trkpt lat="46.28431" lon="6.49035">
        <ele>1354.63</ele>
        <time>2019-02-07T11:05:35Z</time>
      </trkpt>
      <trkpt lat="46.28432" lon="6.49036">
        <ele>1354.63</ele>
        <time>2019-02-07T11:05:37Z</time>
      </trkpt>
      <trkpt lat="46.28439" lon="6.49043">
        <ele>1355.6</ele>
        <time>2019-02-07T11:05:48Z</time>
      </trkpt>
      <trkpt lat="46.28446" lon="6.4905">
        <ele>1357.04</ele>
        <time>2019-02-07T11:05:59Z</time>
      </trkpt>
      <trkpt lat="46.28452" lon="6.49054">
        <ele>1358</ele>
        <time>2019-02-07T11:06:08Z</time>
      </trkpt>
      <trkpt lat="46.28458" lon="6.49058">
        <ele>1358</ele>
        <time>2019-02-07T11:06:17Z</time>
      </trkpt>
      <trkpt lat="46.28466" lon="6.49064">
        <ele>1357.04</ele>
        <time>2019-02-07T11:06:29Z</time>
      </trkpt>
      <trkpt lat="46.28473" lon="6.4907">
        <ele>1358.48</ele>
        <time>2019-02-07T11:06:40Z</time>
      </trkpt>
      <trkpt lat="46.28476" lon="6.49072">
        <ele>1358.48</ele>
        <time>2019-02-07T11:06:44Z</time>
      </trkpt>
      <trkpt lat="46.28479" lon="6.49076">
        <ele>1357.52</ele>
        <time>2019-02-07T11:06:49Z</time>
      </trkpt>
      <trkpt lat="46.28482" lon="6.49079">
        <ele>1358.48</ele>
        <time>2019-02-07T11:06:52Z</time>
      </trkpt>
      <trkpt lat="46.28485" lon="6.49081">
        <ele>1358.96</ele>
        <time>2019-02-07T11:06:56Z</time>
      </trkpt>
      <trkpt lat="46.28487" lon="6.49083">
        <ele>1358.48</ele>
        <time>2019-02-07T11:06:59Z</time>
      </trkpt>
      <trkpt lat="46.28493" lon="6.49088">
        <ele>1359.44</ele>
        <time>2019-02-07T11:07:07Z</time>
      </trkpt>
      <trkpt lat="46.28499" lon="6.49094">
        <ele>1360.88</ele>
        <time>2019-02-07T11:07:16Z</time>
      </trkpt>
      <trkpt lat="46.28504" lon="6.49097">
        <ele>1360.88</ele>
        <time>2019-02-07T11:07:23Z</time>
      </trkpt>
      <trkpt lat="46.2851" lon="6.49105">
        <ele>1360.88</ele>
        <time>2019-02-07T11:07:36Z</time>
      </trkpt>
      <trkpt lat="46.28513" lon="6.4911">
        <ele>1361.84</ele>
        <time>2019-02-07T11:07:50Z</time>
      </trkpt>
      <trkpt lat="46.28513" lon="6.49112">
        <ele>1360.88</ele>
        <time>2019-02-07T11:08:10Z</time>
      </trkpt>
      <trkpt lat="46.28512" lon="6.49115">
        <ele>1358.96</ele>
        <time>2019-02-07T11:08:23Z</time>
      </trkpt>
      <trkpt lat="46.28517" lon="6.49116">
        <ele>1361.36</ele>
        <time>2019-02-07T11:08:52Z</time>
      </trkpt>
      <trkpt lat="46.28528" lon="6.49125">
        <ele>1362.33</ele>
        <time>2019-02-07T11:09:06Z</time>
      </trkpt>
      <trkpt lat="46.28533" lon="6.4913">
        <ele>1362.33</ele>
        <time>2019-02-07T11:09:14Z</time>
      </trkpt>
      <trkpt lat="46.28534" lon="6.49131">
        <ele>1362.33</ele>
        <time>2019-02-07T11:09:16Z</time>
      </trkpt>
      <trkpt lat="46.28536" lon="6.49133">
        <ele>1362.33</ele>
        <time>2019-02-07T11:09:18Z</time>
      </trkpt>
      <trkpt lat="46.2854" lon="6.49137">
        <ele>1362.33</ele>
        <time>2019-02-07T11:09:23Z</time>
      </trkpt>
      <trkpt lat="46.28548" lon="6.49146">
        <ele>1362.33</ele>
        <time>2019-02-07T11:09:34Z</time>
      </trkpt>
      <trkpt lat="46.28549" lon="6.49148">
        <ele>1362.81</ele>
        <time>2019-02-07T11:09:36Z</time>
      </trkpt>
      <trkpt lat="46.28554" lon="6.49151">
        <ele>1361.84</ele>
        <time>2019-02-07T11:09:41Z</time>
      </trkpt>
      <trkpt lat="46.28557" lon="6.49153">
        <ele>1362.33</ele>
        <time>2019-02-07T11:09:45Z</time>
      </trkpt>
      <trkpt lat="46.28564" lon="6.49162">
        <ele>1362.81</ele>
        <time>2019-02-07T11:09:55Z</time>
      </trkpt>
      <trkpt lat="46.28573" lon="6.49166">
        <ele>1361.84</ele>
        <time>2019-02-07T11:10:07Z</time>
      </trkpt>
      <trkpt lat="46.28585" lon="6.49173">
        <ele>1363.29</ele>
        <time>2019-02-07T11:10:21Z</time>
      </trkpt>
      <trkpt lat="46.2859" lon="6.49175">
        <ele>1362.81</ele>
        <time>2019-02-07T11:10:25Z</time>
      </trkpt>
      <trkpt lat="46.28602" lon="6.49182">
        <ele>1362.33</ele>
        <time>2019-02-07T11:10:37Z</time>
      </trkpt>
      <trkpt lat="46.28608" lon="6.49187">
        <ele>1362.33</ele>
        <time>2019-02-07T11:10:44Z</time>
      </trkpt>
      <trkpt lat="46.28615" lon="6.49182">
        <ele>1362.81</ele>
        <time>2019-02-07T11:10:52Z</time>
      </trkpt>
      <trkpt lat="46.28618" lon="6.49173">
        <ele>1362.33</ele>
        <time>2019-02-07T11:10:59Z</time>
      </trkpt>
      <trkpt lat="46.28618" lon="6.49169">
        <ele>1362.33</ele>
        <time>2019-02-07T11:11:02Z</time>
      </trkpt>
      <trkpt lat="46.28619" lon="6.49165">
        <ele>1362.81</ele>
        <time>2019-02-07T11:11:05Z</time>
      </trkpt>
      <trkpt lat="46.2862" lon="6.49156">
        <ele>1363.29</ele>
        <time>2019-02-07T11:11:11Z</time>
      </trkpt>
      <trkpt lat="46.28619" lon="6.49154">
        <ele>1363.77</ele>
        <time>2019-02-07T11:11:13Z</time>
      </trkpt>
      <trkpt lat="46.28621" lon="6.49138">
        <ele>1365.69</ele>
        <time>2019-02-07T11:11:25Z</time>
      </trkpt>
      <trkpt lat="46.28621" lon="6.49137">
        <ele>1365.69</ele>
        <time>2019-02-07T11:11:26Z</time>
      </trkpt>
      <trkpt lat="46.28623" lon="6.49121">
        <ele>1364.25</ele>
        <time>2019-02-07T11:11:40Z</time>
      </trkpt>
      <trkpt lat="46.28624" lon="6.49111">
        <ele>1365.21</ele>
        <time>2019-02-07T11:11:48Z</time>
      </trkpt>
      <trkpt lat="46.28624" lon="6.49095">
        <ele>1366.65</ele>
        <time>2019-02-07T11:12:00Z</time>
      </trkpt>
      <trkpt lat="46.28625" lon="6.49088">
        <ele>1368.09</ele>
        <time>2019-02-07T11:12:06Z</time>
      </trkpt>
      <trkpt lat="46.28631" lon="6.49083">
        <ele>1369.05</ele>
        <time>2019-02-07T11:12:18Z</time>
      </trkpt>
      <trkpt lat="46.28639" lon="6.49081">
        <ele>1371.46</ele>
        <time>2019-02-07T11:12:31Z</time>
      </trkpt>
      <trkpt lat="46.28643" lon="6.49084">
        <ele>1374.34</ele>
        <time>2019-02-07T11:12:43Z</time>
      </trkpt>
      <trkpt lat="46.28644" lon="6.49087">
        <ele>1374.34</ele>
        <time>2019-02-07T11:12:45Z</time>
      </trkpt>
      <trkpt lat="46.28647" lon="6.49098">
        <ele>1373.38</ele>
        <time>2019-02-07T11:12:57Z</time>
      </trkpt>
      <trkpt lat="46.28644" lon="6.49116">
        <ele>1373.86</ele>
        <time>2019-02-07T11:13:17Z</time>
      </trkpt>
      <trkpt lat="46.28646" lon="6.49115">
        <ele>1373.38</ele>
        <time>2019-02-07T11:13:24Z</time>
      </trkpt>
      <trkpt lat="46.28654" lon="6.49103">
        <ele>1372.42</ele>
        <time>2019-02-07T11:13:41Z</time>
      </trkpt>
      <trkpt lat="46.28653" lon="6.49084">
        <ele>1371.94</ele>
        <time>2019-02-07T11:13:58Z</time>
      </trkpt>
      <trkpt lat="46.28651" lon="6.49085">
        <ele>1374.34</ele>
        <time>2019-02-07T11:14:03Z</time>
      </trkpt>
      <trkpt lat="46.2865" lon="6.49085">
        <ele>1373.38</ele>
        <time>2019-02-07T11:14:28Z</time>
      </trkpt>
      <trkpt lat="46.28649" lon="6.49069">
        <ele>1374.82</ele>
        <time>2019-02-07T11:14:41Z</time>
      </trkpt>
      <trkpt lat="46.28646" lon="6.49077">
        <ele>1376.26</ele>
        <time>2019-02-07T11:14:57Z</time>
      </trkpt>
      <trkpt lat="46.28646" lon="6.49076">
        <ele>1374.34</ele>
        <time>2019-02-07T11:15:06Z</time>
      </trkpt>
      <trkpt lat="46.28648" lon="6.49089">
        <ele>1373.86</ele>
        <time>2019-02-07T11:15:25Z</time>
      </trkpt>
      <trkpt lat="46.28648" lon="6.49087">
        <ele>1375.78</ele>
        <time>2019-02-07T11:15:45Z</time>
      </trkpt>
      <trkpt lat="46.28642" lon="6.49081">
        <ele>1375.3</ele>
        <time>2019-02-07T11:16:10Z</time>
      </trkpt>
      <trkpt lat="46.28641" lon="6.49078">
        <ele>1374.34</ele>
        <time>2019-02-07T11:16:30Z</time>
      </trkpt>
      <trkpt lat="46.28643" lon="6.4908">
        <ele>1375.78</ele>
        <time>2019-02-07T11:16:38Z</time>
      </trkpt>
      <trkpt lat="46.28646" lon="6.49084">
        <ele>1375.3</ele>
        <time>2019-02-07T11:17:00Z</time>
      </trkpt>
      <trkpt lat="46.28647" lon="6.49088">
        <ele>1375.3</ele>
        <time>2019-02-07T11:17:22Z</time>
      </trkpt>
      <trkpt lat="46.28647" lon="6.49101">
        <ele>1374.34</ele>
        <time>2019-02-07T11:17:33Z</time>
      </trkpt>
      <trkpt lat="46.28648" lon="6.49104">
        <ele>1374.34</ele>
        <time>2019-02-07T11:17:35Z</time>
      </trkpt>
      <trkpt lat="46.28649" lon="6.49107">
        <ele>1375.3</ele>
        <time>2019-02-07T11:17:38Z</time>
      </trkpt>
      <trkpt lat="46.28649" lon="6.49113">
        <ele>1373.86</ele>
        <time>2019-02-07T11:17:44Z</time>
      </trkpt>
      <trkpt lat="46.28654" lon="6.49124">
        <ele>1375.3</ele>
        <time>2019-02-07T11:18:03Z</time>
      </trkpt>
      <trkpt lat="46.28653" lon="6.49117">
        <ele>1374.82</ele>
        <time>2019-02-07T11:18:12Z</time>
      </trkpt>
      <trkpt lat="46.28654" lon="6.49104">
        <ele>1373.86</ele>
        <time>2019-02-07T11:18:35Z</time>
      </trkpt>
      <trkpt lat="46.28654" lon="6.49104">
        <ele>1375.3</ele>
        <time>2019-02-07T11:18:40Z</time>
      </trkpt>
      <trkpt lat="46.28653" lon="6.49082">
        <ele>1374.82</ele>
        <time>2019-02-07T11:19:05Z</time>
      </trkpt>
      <trkpt lat="46.28655" lon="6.49078">
        <ele>1374.34</ele>
        <time>2019-02-07T11:19:29Z</time>
      </trkpt>
      <trkpt lat="46.28655" lon="6.49078">
        <ele>1375.3</ele>
        <time>2019-02-07T11:19:56Z</time>
      </trkpt>
      <trkpt lat="46.28657" lon="6.49077">
        <ele>1374.82</ele>
        <time>2019-02-07T11:20:20Z</time>
      </trkpt>
      <trkpt lat="46.28655" lon="6.49078">
        <ele>1376.26</ele>
        <time>2019-02-07T11:20:39Z</time>
      </trkpt>
      <trkpt lat="46.28652" lon="6.49077">
        <ele>1372.9</ele>
        <time>2019-02-07T11:20:50Z</time>
      </trkpt>
      <trkpt lat="46.2865" lon="6.49078">
        <ele>1374.34</ele>
        <time>2019-02-07T11:21:12Z</time>
      </trkpt>
      <trkpt lat="46.28651" lon="6.49075">
        <ele>1373.86</ele>
        <time>2019-02-07T11:21:39Z</time>
      </trkpt>
      <trkpt lat="46.2865" lon="6.49075">
        <ele>1373.86</ele>
        <time>2019-02-07T11:22:04Z</time>
      </trkpt>
      <trkpt lat="46.28649" lon="6.49079">
        <ele>1374.34</ele>
        <time>2019-02-07T11:22:32Z</time>
      </trkpt>
      <trkpt lat="46.28651" lon="6.49074">
        <ele>1374.34</ele>
        <time>2019-02-07T11:22:53Z</time>
      </trkpt>
      <trkpt lat="46.2865" lon="6.49081">
        <ele>1373.38</ele>
        <time>2019-02-07T11:23:42Z</time>
      </trkpt>
      <trkpt lat="46.2865" lon="6.4908">
        <ele>1373.38</ele>
        <time>2019-02-07T11:24:25Z</time>
      </trkpt>
      <trkpt lat="46.28649" lon="6.49076">
        <ele>1373.38</ele>
        <time>2019-02-07T11:25:17Z</time>
      </trkpt>
      <trkpt lat="46.28649" lon="6.49076">
        <ele>1374.34</ele>
        <time>2019-02-07T11:25:42Z</time>
      </trkpt>
      <trkpt lat="46.28651" lon="6.49073">
        <ele>1374.82</ele>
        <time>2019-02-07T11:26:07Z</time>
      </trkpt>
      <trkpt lat="46.28655" lon="6.49076">
        <ele>1374.82</ele>
        <time>2019-02-07T11:26:34Z</time>
      </trkpt>
      <trkpt lat="46.28651" lon="6.49072">
        <ele>1374.82</ele>
        <time>2019-02-07T11:26:54Z</time>
      </trkpt>
      <trkpt lat="46.28651" lon="6.4907">
        <ele>1375.3</ele>
        <time>2019-02-07T11:27:16Z</time>
      </trkpt>
      <trkpt lat="46.28655" lon="6.49072">
        <ele>1373.86</ele>
        <time>2019-02-07T11:27:39Z</time>
      </trkpt>
      <trkpt lat="46.28656" lon="6.49072">
        <ele>1374.34</ele>
        <time>2019-02-07T11:28:09Z</time>
      </trkpt>
      <trkpt lat="46.28656" lon="6.49072">
        <ele>1373.86</ele>
        <time>2019-02-07T11:28:51Z</time>
      </trkpt>
      <trkpt lat="46.2865" lon="6.49073">
        <ele>1372.9</ele>
        <time>2019-02-07T11:30:00Z</time>
      </trkpt>
      <trkpt lat="46.28648" lon="6.49079">
        <ele>1373.86</ele>
        <time>2019-02-07T11:30:31Z</time>
      </trkpt>
      <trkpt lat="46.28652" lon="6.49084">
        <ele>1372.9</ele>
        <time>2019-02-07T11:31:00Z</time>
      </trkpt>
      <trkpt lat="46.28653" lon="6.49079">
        <ele>1373.38</ele>
        <time>2019-02-07T11:31:28Z</time>
      </trkpt>
      <trkpt lat="46.28654" lon="6.49077">
        <ele>1372.42</ele>
        <time>2019-02-07T11:31:34Z</time>
      </trkpt>
      <trkpt lat="46.28653" lon="6.4908">
        <ele>1373.38</ele>
        <time>2019-02-07T11:31:57Z</time>
      </trkpt>
      <trkpt lat="46.28653" lon="6.4908">
        <ele>1371.94</ele>
        <time>2019-02-07T11:32:04Z</time>
      </trkpt>
      <trkpt lat="46.28652" lon="6.49082">
        <ele>1370.98</ele>
        <time>2019-02-07T11:32:26Z</time>
      </trkpt>
      <trkpt lat="46.28649" lon="6.49082">
        <ele>1373.86</ele>
        <time>2019-02-07T11:32:33Z</time>
      </trkpt>
      <trkpt lat="46.28651" lon="6.49084">
        <ele>1373.38</ele>
        <time>2019-02-07T11:32:55Z</time>
      </trkpt>
      <trkpt lat="46.28648" lon="6.49074">
        <ele>1372.9</ele>
        <time>2019-02-07T11:33:16Z</time>
      </trkpt>
      <trkpt lat="46.28648" lon="6.49073">
        <ele>1372.42</ele>
        <time>2019-02-07T11:33:40Z</time>
      </trkpt>
      <trkpt lat="46.28648" lon="6.49072">
        <ele>1373.38</ele>
        <time>2019-02-07T11:34:12Z</time>
      </trkpt>
      <trkpt lat="46.28648" lon="6.49072">
        <ele>1370.98</ele>
        <time>2019-02-07T11:34:54Z</time>
      </trkpt>
      <trkpt lat="46.28648" lon="6.49072">
        <ele>1371.94</ele>
        <time>2019-02-07T11:35:07Z</time>
      </trkpt>
      <trkpt lat="46.28649" lon="6.49073">
        <ele>1369.05</ele>
        <time>2019-02-07T11:35:25Z</time>
      </trkpt>
      <trkpt lat="46.28651" lon="6.49087">
        <ele>1372.42</ele>
        <time>2019-02-07T11:35:43Z</time>
      </trkpt>
      <trkpt lat="46.2865" lon="6.49092">
        <ele>1373.86</ele>
        <time>2019-02-07T11:36:09Z</time>
      </trkpt>
      <trkpt lat="46.28651" lon="6.4909">
        <ele>1373.38</ele>
        <time>2019-02-07T11:36:31Z</time>
      </trkpt>
      <trkpt lat="46.28651" lon="6.4909">
        <ele>1369.54</ele>
        <time>2019-02-07T11:36:39Z</time>
      </trkpt>
      <trkpt lat="46.28651" lon="6.4909">
        <ele>1372.9</ele>
        <time>2019-02-07T11:36:42Z</time>
      </trkpt>
      <trkpt lat="46.2865" lon="6.49087">
        <ele>1372.42</ele>
        <time>2019-02-07T11:37:04Z</time>
      </trkpt>
      <trkpt lat="46.2865" lon="6.49087">
        <ele>1371.94</ele>
        <time>2019-02-07T11:37:17Z</time>
      </trkpt>
      <trkpt lat="46.28649" lon="6.49084">
        <ele>1371.94</ele>
        <time>2019-02-07T11:38:08Z</time>
      </trkpt>
      <trkpt lat="46.2865" lon="6.49083">
        <ele>1371.46</ele>
        <time>2019-02-07T11:38:47Z</time>
      </trkpt>
      <trkpt lat="46.28648" lon="6.4908">
        <ele>1369.54</ele>
        <time>2019-02-07T11:39:15Z</time>
      </trkpt>
      <trkpt lat="46.28648" lon="6.4908">
        <ele>1371.46</ele>
        <time>2019-02-07T11:39:20Z</time>
      </trkpt>
      <trkpt lat="46.2865" lon="6.49074">
        <ele>1371.94</ele>
        <time>2019-02-07T11:39:42Z</time>
      </trkpt>
      <trkpt lat="46.28648" lon="6.49065">
        <ele>1372.42</ele>
        <time>2019-02-07T11:40:04Z</time>
      </trkpt>
      <trkpt lat="46.28648" lon="6.49072">
        <ele>1373.38</ele>
        <time>2019-02-07T11:40:55Z</time>
      </trkpt>
      <trkpt lat="46.28648" lon="6.49072">
        <ele>1370.5</ele>
        <time>2019-02-07T11:41:14Z</time>
      </trkpt>
      <trkpt lat="46.28648" lon="6.49073">
        <ele>1373.86</ele>
        <time>2019-02-07T11:41:49Z</time>
      </trkpt>
      <trkpt lat="46.28647" lon="6.49074">
        <ele>1370.5</ele>
        <time>2019-02-07T11:42:39Z</time>
      </trkpt>
      <trkpt lat="46.28647" lon="6.49074">
        <ele>1371.94</ele>
        <time>2019-02-07T11:42:56Z</time>
      </trkpt>
      <trkpt lat="46.28647" lon="6.49075">
        <ele>1372.9</ele>
        <time>2019-02-07T11:44:38Z</time>
      </trkpt>
      <trkpt lat="46.28647" lon="6.49076">
        <ele>1372.42</ele>
        <time>2019-02-07T11:44:58Z</time>
      </trkpt>
      <trkpt lat="46.28647" lon="6.49076">
        <ele>1372.9</ele>
        <time>2019-02-07T11:45:26Z</time>
      </trkpt>
      <trkpt lat="46.28647" lon="6.49076">
        <ele>1371.94</ele>
        <time>2019-02-07T11:45:58Z</time>
      </trkpt>
      <trkpt lat="46.28647" lon="6.49082">
        <ele>1373.38</ele>
        <time>2019-02-07T11:46:03Z</time>
      </trkpt>
      <trkpt lat="46.28646" lon="6.49084">
        <ele>1372.42</ele>
        <time>2019-02-07T11:46:27Z</time>
      </trkpt>
      <trkpt lat="46.28639" lon="6.49078">
        <ele>1371.94</ele>
        <time>2019-02-07T11:46:52Z</time>
      </trkpt>
      <trkpt lat="46.28635" lon="6.49083">
        <ele>1372.9</ele>
        <time>2019-02-07T11:47:12Z</time>
      </trkpt>
      <trkpt lat="46.28636" lon="6.49086">
        <ele>1372.9</ele>
        <time>2019-02-07T11:47:34Z</time>
      </trkpt>
      <trkpt lat="46.28642" lon="6.49087">
        <ele>1371.94</ele>
        <time>2019-02-07T11:48:05Z</time>
      </trkpt>
      <trkpt lat="46.28643" lon="6.49088">
        <ele>1372.9</ele>
        <time>2019-02-07T11:48:16Z</time>
      </trkpt>
      <trkpt lat="46.28649" lon="6.49088">
        <ele>1372.9</ele>
        <time>2019-02-07T11:49:39Z</time>
      </trkpt>
      <trkpt lat="46.28648" lon="6.49095">
        <ele>1373.38</ele>
        <time>2019-02-07T11:50:03Z</time>
      </trkpt>
      <trkpt lat="46.2865" lon="6.49099">
        <ele>1372.9</ele>
        <time>2019-02-07T11:50:47Z</time>
      </trkpt>
      <trkpt lat="46.28649" lon="6.49099">
        <ele>1374.34</ele>
        <time>2019-02-07T11:51:06Z</time>
      </trkpt>
      <trkpt lat="46.28652" lon="6.491">
        <ele>1373.86</ele>
        <time>2019-02-07T11:51:36Z</time>
      </trkpt>
      <trkpt lat="46.28649" lon="6.49099">
        <ele>1372.9</ele>
        <time>2019-02-07T11:52:04Z</time>
      </trkpt>
      <trkpt lat="46.28649" lon="6.49099">
        <ele>1372.9</ele>
        <time>2019-02-07T11:52:43Z</time>
      </trkpt>
      <trkpt lat="46.28648" lon="6.49099">
        <ele>1372.42</ele>
        <time>2019-02-07T11:53:08Z</time>
      </trkpt>
      <trkpt lat="46.28654" lon="6.49103">
        <ele>1372.9</ele>
        <time>2019-02-07T11:53:28Z</time>
      </trkpt>
      <trkpt lat="46.28653" lon="6.49102">
        <ele>1373.38</ele>
        <time>2019-02-07T11:53:50Z</time>
      </trkpt>
      <trkpt lat="46.2865" lon="6.49101">
        <ele>1374.34</ele>
        <time>2019-02-07T11:54:13Z</time>
      </trkpt>
      <trkpt lat="46.28649" lon="6.49101">
        <ele>1374.34</ele>
        <time>2019-02-07T11:54:50Z</time>
      </trkpt>
      <trkpt lat="46.28649" lon="6.49101">
        <ele>1373.86</ele>
        <time>2019-02-07T11:55:24Z</time>
      </trkpt>
      <trkpt lat="46.2865" lon="6.49101">
        <ele>1373.86</ele>
        <time>2019-02-07T11:55:58Z</time>
      </trkpt>
      <trkpt lat="46.2865" lon="6.49101">
        <ele>1372.9</ele>
        <time>2019-02-07T11:56:39Z</time>
      </trkpt>
      <trkpt lat="46.2865" lon="6.49101">
        <ele>1373.38</ele>
        <time>2019-02-07T11:57:16Z</time>
      </trkpt>
      <trkpt lat="46.28652" lon="6.49103">
        <ele>1372.42</ele>
        <time>2019-02-07T11:57:36Z</time>
      </trkpt>
      <trkpt lat="46.28652" lon="6.49103">
        <ele>1372.42</ele>
        <time>2019-02-07T11:57:53Z</time>
      </trkpt>
      <trkpt lat="46.28652" lon="6.49103">
        <ele>1372.9</ele>
        <time>2019-02-07T11:58:11Z</time>
      </trkpt>
      <trkpt lat="46.28649" lon="6.49099">
        <ele>1372.42</ele>
        <time>2019-02-07T11:58:40Z</time>
      </trkpt>
      <trkpt lat="46.2865" lon="6.49097">
        <ele>1375.3</ele>
        <time>2019-02-07T11:58:45Z</time>
      </trkpt>
      <trkpt lat="46.28655" lon="6.49096">
        <ele>1373.86</ele>
        <time>2019-02-07T11:58:53Z</time>
      </trkpt>
      <trkpt lat="46.28658" lon="6.49094">
        <ele>1374.34</ele>
        <time>2019-02-07T11:59:04Z</time>
      </trkpt>
      <trkpt lat="46.28662" lon="6.4909">
        <ele>1374.82</ele>
        <time>2019-02-07T11:59:16Z</time>
      </trkpt>
      <trkpt lat="46.28667" lon="6.49096">
        <ele>1377.71</ele>
        <time>2019-02-07T11:59:27Z</time>
      </trkpt>
      <trkpt lat="46.28674" lon="6.491">
        <ele>1379.15</ele>
        <time>2019-02-07T11:59:37Z</time>
      </trkpt>
      <trkpt lat="46.28675" lon="6.491">
        <ele>1378.67</ele>
        <time>2019-02-07T11:59:38Z</time>
      </trkpt>
      <trkpt lat="46.28683" lon="6.49106">
        <ele>1380.11</ele>
        <time>2019-02-07T11:59:50Z</time>
      </trkpt>
      <trkpt lat="46.2869" lon="6.49116">
        <ele>1380.59</ele>
        <time>2019-02-07T12:00:05Z</time>
      </trkpt>
      <trkpt lat="46.28694" lon="6.49123">
        <ele>1382.03</ele>
        <time>2019-02-07T12:00:15Z</time>
      </trkpt>
      <trkpt lat="46.28703" lon="6.49135">
        <ele>1382.99</ele>
        <time>2019-02-07T12:00:28Z</time>
      </trkpt>
      <trkpt lat="46.28709" lon="6.49144">
        <ele>1381.55</ele>
        <time>2019-02-07T12:00:40Z</time>
      </trkpt>
      <trkpt lat="46.28714" lon="6.49153">
        <ele>1381.07</ele>
        <time>2019-02-07T12:00:50Z</time>
      </trkpt>
      <trkpt lat="46.28716" lon="6.49159">
        <ele>1382.51</ele>
        <time>2019-02-07T12:00:59Z</time>
      </trkpt>
      <trkpt lat="46.28721" lon="6.49167">
        <ele>1381.55</ele>
        <time>2019-02-07T12:01:06Z</time>
      </trkpt>
      <trkpt lat="46.28726" lon="6.49172">
        <ele>1382.51</ele>
        <time>2019-02-07T12:01:13Z</time>
      </trkpt>
      <trkpt lat="46.28732" lon="6.49182">
        <ele>1381.07</ele>
        <time>2019-02-07T12:01:25Z</time>
      </trkpt>
      <trkpt lat="46.28741" lon="6.49193">
        <ele>1382.51</ele>
        <time>2019-02-07T12:01:38Z</time>
      </trkpt>
      <trkpt lat="46.28743" lon="6.49197">
        <ele>1383.96</ele>
        <time>2019-02-07T12:01:44Z</time>
      </trkpt>
      <trkpt lat="46.28744" lon="6.49199">
        <ele>1383.47</ele>
        <time>2019-02-07T12:01:46Z</time>
      </trkpt>
      <trkpt lat="46.28748" lon="6.49209">
        <ele>1381.55</ele>
        <time>2019-02-07T12:01:57Z</time>
      </trkpt>
      <trkpt lat="46.28756" lon="6.49219">
        <ele>1380.11</ele>
        <time>2019-02-07T12:02:11Z</time>
      </trkpt>
      <trkpt lat="46.2876" lon="6.49227">
        <ele>1378.67</ele>
        <time>2019-02-07T12:02:19Z</time>
      </trkpt>
      <trkpt lat="46.28765" lon="6.49233">
        <ele>1382.51</ele>
        <time>2019-02-07T12:02:25Z</time>
      </trkpt>
      <trkpt lat="46.28766" lon="6.49235">
        <ele>1381.55</ele>
        <time>2019-02-07T12:02:27Z</time>
      </trkpt>
      <trkpt lat="46.28774" lon="6.49244">
        <ele>1379.63</ele>
        <time>2019-02-07T12:02:39Z</time>
      </trkpt>
      <trkpt lat="46.28776" lon="6.49246">
        <ele>1376.26</ele>
        <time>2019-02-07T12:02:45Z</time>
      </trkpt>
      <trkpt lat="46.28778" lon="6.49248">
        <ele>1375.78</ele>
        <time>2019-02-07T12:02:47Z</time>
      </trkpt>
      <trkpt lat="46.28782" lon="6.49252">
        <ele>1373.86</ele>
        <time>2019-02-07T12:02:54Z</time>
      </trkpt>
      <trkpt lat="46.28784" lon="6.49257">
        <ele>1373.38</ele>
        <time>2019-02-07T12:03:06Z</time>
      </trkpt>
      <trkpt lat="46.28785" lon="6.49257">
        <ele>1372.42</ele>
        <time>2019-02-07T12:03:40Z</time>
      </trkpt>
      <trkpt lat="46.2879" lon="6.49262">
        <ele>1371.46</ele>
        <time>2019-02-07T12:03:53Z</time>
      </trkpt>
      <trkpt lat="46.28794" lon="6.49264">
        <ele>1371.46</ele>
        <time>2019-02-07T12:04:03Z</time>
      </trkpt>
      <trkpt lat="46.28795" lon="6.49266">
        <ele>1370.5</ele>
        <time>2019-02-07T12:04:05Z</time>
      </trkpt>
      <trkpt lat="46.28797" lon="6.49273">
        <ele>1369.05</ele>
        <time>2019-02-07T12:04:14Z</time>
      </trkpt>
      <trkpt lat="46.28796" lon="6.49275">
        <ele>1367.61</ele>
        <time>2019-02-07T12:04:16Z</time>
      </trkpt>
      <trkpt lat="46.28794" lon="6.49275">
        <ele>1365.69</ele>
        <time>2019-02-07T12:04:21Z</time>
      </trkpt>
      <trkpt lat="46.28794" lon="6.49277">
        <ele>1365.21</ele>
        <time>2019-02-07T12:04:26Z</time>
      </trkpt>
      <trkpt lat="46.28793" lon="6.49277">
        <ele>1364.25</ele>
        <time>2019-02-07T12:04:28Z</time>
      </trkpt>
      <trkpt lat="46.28791" lon="6.49277">
        <ele>1365.69</ele>
        <time>2019-02-07T12:04:30Z</time>
      </trkpt>
      <trkpt lat="46.28789" lon="6.49279">
        <ele>1367.13</ele>
        <time>2019-02-07T12:04:43Z</time>
      </trkpt>
      <trkpt lat="46.28789" lon="6.4928">
        <ele>1366.17</ele>
        <time>2019-02-07T12:05:30Z</time>
      </trkpt>
      <trkpt lat="46.28789" lon="6.4928">
        <ele>1366.17</ele>
        <time>2019-02-07T12:05:51Z</time>
      </trkpt>
      <trkpt lat="46.28788" lon="6.49284">
        <ele>1366.17</ele>
        <time>2019-02-07T12:07:38Z</time>
      </trkpt>
      <trkpt lat="46.28788" lon="6.49287">
        <ele>1365.69</ele>
        <time>2019-02-07T12:07:42Z</time>
      </trkpt>
      <trkpt lat="46.28788" lon="6.49296">
        <ele>1366.17</ele>
        <time>2019-02-07T12:07:53Z</time>
      </trkpt>
      <trkpt lat="46.28787" lon="6.49304">
        <ele>1365.21</ele>
        <time>2019-02-07T12:07:59Z</time>
      </trkpt>
      <trkpt lat="46.28786" lon="6.49314">
        <ele>1362.81</ele>
        <time>2019-02-07T12:08:09Z</time>
      </trkpt>
      <trkpt lat="46.28785" lon="6.49326">
        <ele>1359.44</ele>
        <time>2019-02-07T12:08:20Z</time>
      </trkpt>
      <trkpt lat="46.28784" lon="6.4933">
        <ele>1358.96</ele>
        <time>2019-02-07T12:08:24Z</time>
      </trkpt>
      <trkpt lat="46.28779" lon="6.4934">
        <ele>1357.52</ele>
        <time>2019-02-07T12:08:36Z</time>
      </trkpt>
      <trkpt lat="46.28778" lon="6.49345">
        <ele>1354.15</ele>
        <time>2019-02-07T12:08:44Z</time>
      </trkpt>
      <trkpt lat="46.28777" lon="6.49348">
        <ele>1352.23</ele>
        <time>2019-02-07T12:08:54Z</time>
      </trkpt>
      <trkpt lat="46.28784" lon="6.49357">
        <ele>1350.31</ele>
        <time>2019-02-07T12:09:05Z</time>
      </trkpt>
      <trkpt lat="46.28784" lon="6.49359">
        <ele>1350.31</ele>
        <time>2019-02-07T12:09:07Z</time>
      </trkpt>
      <trkpt lat="46.28785" lon="6.4936">
        <ele>1350.31</ele>
        <time>2019-02-07T12:09:08Z</time>
      </trkpt>
      <trkpt lat="46.28795" lon="6.49366">
        <ele>1349.83</ele>
        <time>2019-02-07T12:09:20Z</time>
      </trkpt>
      <trkpt lat="46.288" lon="6.49373">
        <ele>1348.39</ele>
        <time>2019-02-07T12:09:32Z</time>
      </trkpt>
      <trkpt lat="46.28803" lon="6.49377">
        <ele>1347.91</ele>
        <time>2019-02-07T12:09:37Z</time>
      </trkpt>
      <trkpt lat="46.28807" lon="6.49384">
        <ele>1346.94</ele>
        <time>2019-02-07T12:09:43Z</time>
      </trkpt>
      <trkpt lat="46.28808" lon="6.49386">
        <ele>1346.46</ele>
        <time>2019-02-07T12:09:45Z</time>
      </trkpt>
      <trkpt lat="46.2881" lon="6.49391">
        <ele>1346.46</ele>
        <time>2019-02-07T12:09:48Z</time>
      </trkpt>
      <trkpt lat="46.28812" lon="6.49394">
        <ele>1346.46</ele>
        <time>2019-02-07T12:09:51Z</time>
      </trkpt>
      <trkpt lat="46.28817" lon="6.49406">
        <ele>1345.02</ele>
        <time>2019-02-07T12:10:00Z</time>
      </trkpt>
      <trkpt lat="46.28823" lon="6.49418">
        <ele>1345.5</ele>
        <time>2019-02-07T12:10:12Z</time>
      </trkpt>
      <trkpt lat="46.28828" lon="6.49428">
        <ele>1343.58</ele>
        <time>2019-02-07T12:10:22Z</time>
      </trkpt>
      <trkpt lat="46.28834" lon="6.4944">
        <ele>1341.66</ele>
        <time>2019-02-07T12:10:33Z</time>
      </trkpt>
      <trkpt lat="46.28838" lon="6.49449">
        <ele>1340.7</ele>
        <time>2019-02-07T12:10:43Z</time>
      </trkpt>
      <trkpt lat="46.28839" lon="6.49451">
        <ele>1340.7</ele>
        <time>2019-02-07T12:10:45Z</time>
      </trkpt>
      <trkpt lat="46.28845" lon="6.49462">
        <ele>1339.73</ele>
        <time>2019-02-07T12:10:57Z</time>
      </trkpt>
      <trkpt lat="46.28849" lon="6.49474">
        <ele>1337.81</ele>
        <time>2019-02-07T12:11:10Z</time>
      </trkpt>
      <trkpt lat="46.28853" lon="6.49485">
        <ele>1336.85</ele>
        <time>2019-02-07T12:11:24Z</time>
      </trkpt>
      <trkpt lat="46.28856" lon="6.4949">
        <ele>1336.37</ele>
        <time>2019-02-07T12:11:37Z</time>
      </trkpt>
      <trkpt lat="46.28863" lon="6.495">
        <ele>1334.93</ele>
        <time>2019-02-07T12:11:50Z</time>
      </trkpt>
      <trkpt lat="46.28868" lon="6.49503">
        <ele>1334.93</ele>
        <time>2019-02-07T12:12:06Z</time>
      </trkpt>
      <trkpt lat="46.28871" lon="6.49504">
        <ele>1334.45</ele>
        <time>2019-02-07T12:12:35Z</time>
      </trkpt>
      <trkpt lat="46.28883" lon="6.49512">
        <ele>1332.52</ele>
        <time>2019-02-07T12:12:48Z</time>
      </trkpt>
      <trkpt lat="46.28886" lon="6.49517">
        <ele>1331.08</ele>
        <time>2019-02-07T12:13:00Z</time>
      </trkpt>
      <trkpt lat="46.28896" lon="6.49527">
        <ele>1329.16</ele>
        <time>2019-02-07T12:13:12Z</time>
      </trkpt>
      <trkpt lat="46.28906" lon="6.49537">
        <ele>1327.72</ele>
        <time>2019-02-07T12:13:23Z</time>
      </trkpt>
      <trkpt lat="46.28909" lon="6.49544">
        <ele>1327.24</ele>
        <time>2019-02-07T12:13:28Z</time>
      </trkpt>
      <trkpt lat="46.28912" lon="6.49553">
        <ele>1326.76</ele>
        <time>2019-02-07T12:13:35Z</time>
      </trkpt>
      <trkpt lat="46.28914" lon="6.49555">
        <ele>1325.31</ele>
        <time>2019-02-07T12:13:37Z</time>
      </trkpt>
      <trkpt lat="46.28914" lon="6.49556">
        <ele>1326.76</ele>
        <time>2019-02-07T12:13:38Z</time>
      </trkpt>
      <trkpt lat="46.28921" lon="6.49566">
        <ele>1325.31</ele>
        <time>2019-02-07T12:13:47Z</time>
      </trkpt>
      <trkpt lat="46.28928" lon="6.49581">
        <ele>1323.87</ele>
        <time>2019-02-07T12:14:00Z</time>
      </trkpt>
      <trkpt lat="46.28932" lon="6.49589">
        <ele>1322.43</ele>
        <time>2019-02-07T12:14:11Z</time>
      </trkpt>
      <trkpt lat="46.28937" lon="6.496">
        <ele>1320.99</ele>
        <time>2019-02-07T12:14:24Z</time>
      </trkpt>
      <trkpt lat="46.2894" lon="6.49609">
        <ele>1319.07</ele>
        <time>2019-02-07T12:14:37Z</time>
      </trkpt>
      <trkpt lat="46.28947" lon="6.49622">
        <ele>1317.14</ele>
        <time>2019-02-07T12:14:50Z</time>
      </trkpt>
      <trkpt lat="46.28948" lon="6.49623">
        <ele>1317.14</ele>
        <time>2019-02-07T12:14:51Z</time>
      </trkpt>
      <trkpt lat="46.28953" lon="6.49634">
        <ele>1316.66</ele>
        <time>2019-02-07T12:15:04Z</time>
      </trkpt>
      <trkpt lat="46.2896" lon="6.49644">
        <ele>1313.78</ele>
        <time>2019-02-07T12:15:18Z</time>
      </trkpt>
      <trkpt lat="46.28968" lon="6.49653">
        <ele>1310.9</ele>
        <time>2019-02-07T12:15:30Z</time>
      </trkpt>
      <trkpt lat="46.28975" lon="6.49666">
        <ele>1308.49</ele>
        <time>2019-02-07T12:15:44Z</time>
      </trkpt>
      <trkpt lat="46.28977" lon="6.49678">
        <ele>1308.97</ele>
        <time>2019-02-07T12:15:56Z</time>
      </trkpt>
      <trkpt lat="46.28975" lon="6.49689">
        <ele>1306.57</ele>
        <time>2019-02-07T12:16:08Z</time>
      </trkpt>
      <trkpt lat="46.28974" lon="6.49698">
        <ele>1306.57</ele>
        <time>2019-02-07T12:16:16Z</time>
      </trkpt>
      <trkpt lat="46.28973" lon="6.49714">
        <ele>1305.61</ele>
        <time>2019-02-07T12:16:30Z</time>
      </trkpt>
      <trkpt lat="46.28974" lon="6.49719">
        <ele>1305.13</ele>
        <time>2019-02-07T12:16:42Z</time>
      </trkpt>
      <trkpt lat="46.28974" lon="6.49732">
        <ele>1302.72</ele>
        <time>2019-02-07T12:16:55Z</time>
      </trkpt>
      <trkpt lat="46.28974" lon="6.4975">
        <ele>1301.76</ele>
        <time>2019-02-07T12:17:10Z</time>
      </trkpt>
      <trkpt lat="46.28971" lon="6.49765">
        <ele>1300.8</ele>
        <time>2019-02-07T12:17:24Z</time>
      </trkpt>
      <trkpt lat="46.28983" lon="6.49783">
        <ele>1300.32</ele>
        <time>2019-02-07T12:17:38Z</time>
      </trkpt>
      <trkpt lat="46.28984" lon="6.49802">
        <ele>1298.4</ele>
        <time>2019-02-07T12:17:54Z</time>
      </trkpt>
      <trkpt lat="46.2899" lon="6.49823">
        <ele>1297.44</ele>
        <time>2019-02-07T12:18:08Z</time>
      </trkpt>
      <trkpt lat="46.28997" lon="6.49835">
        <ele>1296.48</ele>
        <time>2019-02-07T12:18:22Z</time>
      </trkpt>
      <trkpt lat="46.28999" lon="6.49845">
        <ele>1296.48</ele>
        <time>2019-02-07T12:18:34Z</time>
      </trkpt>
      <trkpt lat="46.29004" lon="6.49859">
        <ele>1295.99</ele>
        <time>2019-02-07T12:18:48Z</time>
      </trkpt>
      <trkpt lat="46.29005" lon="6.49861">
        <ele>1295.99</ele>
        <time>2019-02-07T12:18:50Z</time>
      </trkpt>
      <trkpt lat="46.29016" lon="6.49873">
        <ele>1295.51</ele>
        <time>2019-02-07T12:19:03Z</time>
      </trkpt>
      <trkpt lat="46.29018" lon="6.49878">
        <ele>1292.63</ele>
        <time>2019-02-07T12:19:16Z</time>
      </trkpt>
      <trkpt lat="46.29022" lon="6.49891">
        <ele>1290.71</ele>
        <time>2019-02-07T12:19:29Z</time>
      </trkpt>
      <trkpt lat="46.29024" lon="6.49909">
        <ele>1288.78</ele>
        <time>2019-02-07T12:19:43Z</time>
      </trkpt>
      <trkpt lat="46.29021" lon="6.49922">
        <ele>1286.86</ele>
        <time>2019-02-07T12:19:55Z</time>
      </trkpt>
      <trkpt lat="46.29019" lon="6.49925">
        <ele>1285.42</ele>
        <time>2019-02-07T12:20:00Z</time>
      </trkpt>
      <trkpt lat="46.29013" lon="6.49931">
        <ele>1283.5</ele>
        <time>2019-02-07T12:20:15Z</time>
      </trkpt>
      <trkpt lat="46.29021" lon="6.49953">
        <ele>1281.57</ele>
        <time>2019-02-07T12:20:27Z</time>
      </trkpt>
      <trkpt lat="46.29029" lon="6.49973">
        <ele>1279.65</ele>
        <time>2019-02-07T12:20:43Z</time>
      </trkpt>
      <trkpt lat="46.29035" lon="6.49982">
        <ele>1278.21</ele>
        <time>2019-02-07T12:20:55Z</time>
      </trkpt>
      <trkpt lat="46.29036" lon="6.49982">
        <ele>1278.21</ele>
        <time>2019-02-07T12:20:56Z</time>
      </trkpt>
      <trkpt lat="46.2904" lon="6.49996">
        <ele>1276.77</ele>
        <time>2019-02-07T12:21:09Z</time>
      </trkpt>
      <trkpt lat="46.29044" lon="6.49999">
        <ele>1276.29</ele>
        <time>2019-02-07T12:21:14Z</time>
      </trkpt>
      <trkpt lat="46.29051" lon="6.5001">
        <ele>1274.36</ele>
        <time>2019-02-07T12:21:27Z</time>
      </trkpt>
      <trkpt lat="46.29062" lon="6.50025">
        <ele>1272.44</ele>
        <time>2019-02-07T12:21:43Z</time>
      </trkpt>
      <trkpt lat="46.29071" lon="6.50036">
        <ele>1271</ele>
        <time>2019-02-07T12:21:56Z</time>
      </trkpt>
      <trkpt lat="46.29078" lon="6.50047">
        <ele>1269.08</ele>
        <time>2019-02-07T12:22:09Z</time>
      </trkpt>
      <trkpt lat="46.29082" lon="6.50059">
        <ele>1268.12</ele>
        <time>2019-02-07T12:22:21Z</time>
      </trkpt>
      <trkpt lat="46.29083" lon="6.50063">
        <ele>1267.64</ele>
        <time>2019-02-07T12:22:25Z</time>
      </trkpt>
      <trkpt lat="46.2909" lon="6.50075">
        <ele>1266.19</ele>
        <time>2019-02-07T12:22:40Z</time>
      </trkpt>
      <trkpt lat="46.291" lon="6.50082">
        <ele>1263.31</ele>
        <time>2019-02-07T12:22:52Z</time>
      </trkpt>
      <trkpt lat="46.29105" lon="6.5009">
        <ele>1262.83</ele>
        <time>2019-02-07T12:23:06Z</time>
      </trkpt>
      <trkpt lat="46.29111" lon="6.50097">
        <ele>1261.87</ele>
        <time>2019-02-07T12:23:18Z</time>
      </trkpt>
      <trkpt lat="46.29119" lon="6.50106">
        <ele>1260.91</ele>
        <time>2019-02-07T12:23:32Z</time>
      </trkpt>
      <trkpt lat="46.29127" lon="6.50114">
        <ele>1259.94</ele>
        <time>2019-02-07T12:23:43Z</time>
      </trkpt>
      <trkpt lat="46.29139" lon="6.50122">
        <ele>1259.46</ele>
        <time>2019-02-07T12:23:56Z</time>
      </trkpt>
      <trkpt lat="46.29147" lon="6.50131">
        <ele>1258.98</ele>
        <time>2019-02-07T12:24:10Z</time>
      </trkpt>
      <trkpt lat="46.29148" lon="6.50133">
        <ele>1258.5</ele>
        <time>2019-02-07T12:24:11Z</time>
      </trkpt>
      <trkpt lat="46.29147" lon="6.50145">
        <ele>1257.54</ele>
        <time>2019-02-07T12:24:21Z</time>
      </trkpt>
      <trkpt lat="46.29145" lon="6.5015">
        <ele>1257.06</ele>
        <time>2019-02-07T12:24:24Z</time>
      </trkpt>
      <trkpt lat="46.29139" lon="6.5016">
        <ele>1254.18</ele>
        <time>2019-02-07T12:24:35Z</time>
      </trkpt>
      <trkpt lat="46.29133" lon="6.50163">
        <ele>1253.22</ele>
        <time>2019-02-07T12:24:42Z</time>
      </trkpt>
      <trkpt lat="46.2913" lon="6.50163">
        <ele>1252.25</ele>
        <time>2019-02-07T12:24:44Z</time>
      </trkpt>
      <trkpt lat="46.2912" lon="6.50155">
        <ele>1251.29</ele>
        <time>2019-02-07T12:24:56Z</time>
      </trkpt>
      <trkpt lat="46.2912" lon="6.50155">
        <ele>1251.77</ele>
        <time>2019-02-07T12:24:57Z</time>
      </trkpt>
      <trkpt lat="46.29118" lon="6.50153">
        <ele>1252.25</ele>
        <time>2019-02-07T12:24:59Z</time>
      </trkpt>
      <trkpt lat="46.29112" lon="6.50148">
        <ele>1251.29</ele>
        <time>2019-02-07T12:25:10Z</time>
      </trkpt>
      <trkpt lat="46.29111" lon="6.50146">
        <ele>1250.33</ele>
        <time>2019-02-07T12:25:12Z</time>
      </trkpt>
      <trkpt lat="46.29098" lon="6.50143">
        <ele>1249.85</ele>
        <time>2019-02-07T12:25:25Z</time>
      </trkpt>
      <trkpt lat="46.2909" lon="6.50138">
        <ele>1248.89</ele>
        <time>2019-02-07T12:25:36Z</time>
      </trkpt>
      <trkpt lat="46.29081" lon="6.50129">
        <ele>1247.45</ele>
        <time>2019-02-07T12:25:48Z</time>
      </trkpt>
      <trkpt lat="46.29071" lon="6.50126">
        <ele>1247.45</ele>
        <time>2019-02-07T12:26:01Z</time>
      </trkpt>
      <trkpt lat="46.29064" lon="6.5013">
        <ele>1246.97</ele>
        <time>2019-02-07T12:26:13Z</time>
      </trkpt>
      <trkpt lat="46.29067" lon="6.5013">
        <ele>1247.45</ele>
        <time>2019-02-07T12:26:23Z</time>
      </trkpt>
      <trkpt lat="46.29065" lon="6.50131">
        <ele>1246.97</ele>
        <time>2019-02-07T12:26:37Z</time>
      </trkpt>
      <trkpt lat="46.29063" lon="6.50127">
        <ele>1246.97</ele>
        <time>2019-02-07T12:26:51Z</time>
      </trkpt>
      <trkpt lat="46.2905" lon="6.50127">
        <ele>1246.01</ele>
        <time>2019-02-07T12:27:19Z</time>
      </trkpt>
      <trkpt lat="46.29043" lon="6.50124">
        <ele>1245.04</ele>
        <time>2019-02-07T12:27:27Z</time>
      </trkpt>
      <trkpt lat="46.29033" lon="6.50117">
        <ele>1244.56</ele>
        <time>2019-02-07T12:27:40Z</time>
      </trkpt>
      <trkpt lat="46.29025" lon="6.5011">
        <ele>1243.6</ele>
        <time>2019-02-07T12:27:52Z</time>
      </trkpt>
      <trkpt lat="46.29017" lon="6.50109">
        <ele>1241.68</ele>
        <time>2019-02-07T12:28:06Z</time>
      </trkpt>
      <trkpt lat="46.29005" lon="6.50109">
        <ele>1240.72</ele>
        <time>2019-02-07T12:28:20Z</time>
      </trkpt>
      <trkpt lat="46.28999" lon="6.50109">
        <ele>1239.28</ele>
        <time>2019-02-07T12:28:32Z</time>
      </trkpt>
      <trkpt lat="46.28989" lon="6.50111">
        <ele>1237.83</ele>
        <time>2019-02-07T12:28:43Z</time>
      </trkpt>
      <trkpt lat="46.28981" lon="6.50107">
        <ele>1236.87</ele>
        <time>2019-02-07T12:28:53Z</time>
      </trkpt>
      <trkpt lat="46.28974" lon="6.50105">
        <ele>1235.43</ele>
        <time>2019-02-07T12:29:05Z</time>
      </trkpt>
      <trkpt lat="46.28967" lon="6.50104">
        <ele>1234.95</ele>
        <time>2019-02-07T12:29:13Z</time>
      </trkpt>
      <trkpt lat="46.28953" lon="6.50114">
        <ele>1233.99</ele>
        <time>2019-02-07T12:29:26Z</time>
      </trkpt>
      <trkpt lat="46.28942" lon="6.50119">
        <ele>1233.51</ele>
        <time>2019-02-07T12:29:38Z</time>
      </trkpt>
      <trkpt lat="46.28936" lon="6.50119">
        <ele>1232.55</ele>
        <time>2019-02-07T12:29:45Z</time>
      </trkpt>
      <trkpt lat="46.28926" lon="6.50117">
        <ele>1232.07</ele>
        <time>2019-02-07T12:29:56Z</time>
      </trkpt>
      <trkpt lat="46.28922" lon="6.50117">
        <ele>1232.07</ele>
        <time>2019-02-07T12:30:00Z</time>
      </trkpt>
      <trkpt lat="46.28913" lon="6.5012">
        <ele>1230.62</ele>
        <time>2019-02-07T12:30:12Z</time>
      </trkpt>
      <trkpt lat="46.28903" lon="6.50128">
        <ele>1229.66</ele>
        <time>2019-02-07T12:30:25Z</time>
      </trkpt>
      <trkpt lat="46.28898" lon="6.50131">
        <ele>1229.18</ele>
        <time>2019-02-07T12:30:36Z</time>
      </trkpt>
      <trkpt lat="46.28888" lon="6.50136">
        <ele>1228.22</ele>
        <time>2019-02-07T12:30:48Z</time>
      </trkpt>
      <trkpt lat="46.2888" lon="6.50141">
        <ele>1226.3</ele>
        <time>2019-02-07T12:31:00Z</time>
      </trkpt>
      <trkpt lat="46.28872" lon="6.5014">
        <ele>1225.82</ele>
        <time>2019-02-07T12:31:13Z</time>
      </trkpt>
      <trkpt lat="46.28867" lon="6.5014">
        <ele>1225.34</ele>
        <time>2019-02-07T12:31:19Z</time>
      </trkpt>
      <trkpt lat="46.28864" lon="6.50142">
        <ele>1223.9</ele>
        <time>2019-02-07T12:31:23Z</time>
      </trkpt>
      <trkpt lat="46.28863" lon="6.50142">
        <ele>1223.9</ele>
        <time>2019-02-07T12:31:24Z</time>
      </trkpt>
      <trkpt lat="46.28851" lon="6.50143">
        <ele>1222.93</ele>
        <time>2019-02-07T12:31:38Z</time>
      </trkpt>
      <trkpt lat="46.28843" lon="6.50144">
        <ele>1221.97</ele>
        <time>2019-02-07T12:31:51Z</time>
      </trkpt>
      <trkpt lat="46.28831" lon="6.50149">
        <ele>1221.01</ele>
        <time>2019-02-07T12:32:03Z</time>
      </trkpt>
      <trkpt lat="46.28828" lon="6.50149">
        <ele>1221.01</ele>
        <time>2019-02-07T12:32:06Z</time>
      </trkpt>
      <trkpt lat="46.28819" lon="6.50147">
        <ele>1219.57</ele>
        <time>2019-02-07T12:32:17Z</time>
      </trkpt>
      <trkpt lat="46.28818" lon="6.50147">
        <ele>1220.53</ele>
        <time>2019-02-07T12:32:18Z</time>
      </trkpt>
      <trkpt lat="46.28812" lon="6.50144">
        <ele>1219.57</ele>
        <time>2019-02-07T12:32:25Z</time>
      </trkpt>
      <trkpt lat="46.28809" lon="6.50141">
        <ele>1217.17</ele>
        <time>2019-02-07T12:32:30Z</time>
      </trkpt>
      <trkpt lat="46.28801" lon="6.50137">
        <ele>1216.69</ele>
        <time>2019-02-07T12:32:40Z</time>
      </trkpt>
      <trkpt lat="46.28794" lon="6.50133">
        <ele>1215.24</ele>
        <time>2019-02-07T12:32:50Z</time>
      </trkpt>
      <trkpt lat="46.2879" lon="6.50132">
        <ele>1216.69</ele>
        <time>2019-02-07T12:32:55Z</time>
      </trkpt>
      <trkpt lat="46.28783" lon="6.50134">
        <ele>1217.65</ele>
        <time>2019-02-07T12:33:06Z</time>
      </trkpt>
      <trkpt lat="46.28783" lon="6.50135">
        <ele>1217.17</ele>
        <time>2019-02-07T12:33:09Z</time>
      </trkpt>
      <trkpt lat="46.28788" lon="6.50149">
        <ele>1215.24</ele>
        <time>2019-02-07T12:33:22Z</time>
      </trkpt>
      <trkpt lat="46.2879" lon="6.50151">
        <ele>1215.72</ele>
        <time>2019-02-07T12:33:25Z</time>
      </trkpt>
      <trkpt lat="46.28798" lon="6.50158">
        <ele>1214.76</ele>
        <time>2019-02-07T12:33:37Z</time>
      </trkpt>
      <trkpt lat="46.28801" lon="6.5016">
        <ele>1214.76</ele>
        <time>2019-02-07T12:33:42Z</time>
      </trkpt>
      <trkpt lat="46.28811" lon="6.50165">
        <ele>1213.8</ele>
        <time>2019-02-07T12:33:55Z</time>
      </trkpt>
      <trkpt lat="46.2882" lon="6.50169">
        <ele>1212.84</ele>
        <time>2019-02-07T12:34:06Z</time>
      </trkpt>
      <trkpt lat="46.2883" lon="6.50175">
        <ele>1211.4</ele>
        <time>2019-02-07T12:34:21Z</time>
      </trkpt>
      <trkpt lat="46.28841" lon="6.50179">
        <ele>1209.96</ele>
        <time>2019-02-07T12:34:34Z</time>
      </trkpt>
      <trkpt lat="46.28847" lon="6.50184">
        <ele>1209.96</ele>
        <time>2019-02-07T12:34:43Z</time>
      </trkpt>
      <trkpt lat="46.2885" lon="6.50185">
        <ele>1209.48</ele>
        <time>2019-02-07T12:34:46Z</time>
      </trkpt>
      <trkpt lat="46.2886" lon="6.50196">
        <ele>1208.03</ele>
        <time>2019-02-07T12:35:02Z</time>
      </trkpt>
      <trkpt lat="46.28867" lon="6.50205">
        <ele>1207.07</ele>
        <time>2019-02-07T12:35:14Z</time>
      </trkpt>
      <trkpt lat="46.28875" lon="6.50212">
        <ele>1206.59</ele>
        <time>2019-02-07T12:35:25Z</time>
      </trkpt>
      <trkpt lat="46.28884" lon="6.50219">
        <ele>1205.63</ele>
        <time>2019-02-07T12:35:36Z</time>
      </trkpt>
      <trkpt lat="46.28888" lon="6.50223">
        <ele>1204.67</ele>
        <time>2019-02-07T12:35:43Z</time>
      </trkpt>
      <trkpt lat="46.289" lon="6.50224">
        <ele>1203.71</ele>
        <time>2019-02-07T12:35:55Z</time>
      </trkpt>
      <trkpt lat="46.28908" lon="6.50223">
        <ele>1203.23</ele>
        <time>2019-02-07T12:36:08Z</time>
      </trkpt>
      <trkpt lat="46.28913" lon="6.50221">
        <ele>1202.27</ele>
        <time>2019-02-07T12:36:16Z</time>
      </trkpt>
      <trkpt lat="46.28926" lon="6.50218">
        <ele>1201.3</ele>
        <time>2019-02-07T12:36:30Z</time>
      </trkpt>
      <trkpt lat="46.28935" lon="6.50219">
        <ele>1199.86</ele>
        <time>2019-02-07T12:36:42Z</time>
      </trkpt>
      <trkpt lat="46.2894" lon="6.50222">
        <ele>1199.38</ele>
        <time>2019-02-07T12:36:54Z</time>
      </trkpt>
      <trkpt lat="46.28945" lon="6.50229">
        <ele>1198.9</ele>
        <time>2019-02-07T12:37:03Z</time>
      </trkpt>
      <trkpt lat="46.28953" lon="6.50234">
        <ele>1198.9</ele>
        <time>2019-02-07T12:37:10Z</time>
      </trkpt>
      <trkpt lat="46.28965" lon="6.50237">
        <ele>1197.46</ele>
        <time>2019-02-07T12:37:19Z</time>
      </trkpt>
      <trkpt lat="46.28975" lon="6.50241">
        <ele>1196.98</ele>
        <time>2019-02-07T12:37:32Z</time>
      </trkpt>
      <trkpt lat="46.28976" lon="6.50241">
        <ele>1197.94</ele>
        <time>2019-02-07T12:37:33Z</time>
      </trkpt>
      <trkpt lat="46.28988" lon="6.5025">
        <ele>1196.5</ele>
        <time>2019-02-07T12:37:45Z</time>
      </trkpt>
      <trkpt lat="46.28989" lon="6.50251">
        <ele>1196.5</ele>
        <time>2019-02-07T12:37:46Z</time>
      </trkpt>
      <trkpt lat="46.28991" lon="6.5026">
        <ele>1196.02</ele>
        <time>2019-02-07T12:38:00Z</time>
      </trkpt>
      <trkpt lat="46.28986" lon="6.50263">
        <ele>1196.02</ele>
        <time>2019-02-07T12:38:17Z</time>
      </trkpt>
      <trkpt lat="46.28977" lon="6.50271">
        <ele>1194.58</ele>
        <time>2019-02-07T12:38:28Z</time>
      </trkpt>
      <trkpt lat="46.28968" lon="6.50265">
        <ele>1194.09</ele>
        <time>2019-02-07T12:38:42Z</time>
      </trkpt>
      <trkpt lat="46.28962" lon="6.50264">
        <ele>1193.61</ele>
        <time>2019-02-07T12:38:51Z</time>
      </trkpt>
      <trkpt lat="46.28948" lon="6.50258">
        <ele>1192.17</ele>
        <time>2019-02-07T12:39:05Z</time>
      </trkpt>
      <trkpt lat="46.28938" lon="6.5026">
        <ele>1190.73</ele>
        <time>2019-02-07T12:39:18Z</time>
      </trkpt>
      <trkpt lat="46.28929" lon="6.50269">
        <ele>1189.77</ele>
        <time>2019-02-07T12:39:30Z</time>
      </trkpt>
      <trkpt lat="46.28925" lon="6.50279">
        <ele>1189.29</ele>
        <time>2019-02-07T12:39:40Z</time>
      </trkpt>
      <trkpt lat="46.28921" lon="6.50281">
        <ele>1188.81</ele>
        <time>2019-02-07T12:39:45Z</time>
      </trkpt>
      <trkpt lat="46.28916" lon="6.50294">
        <ele>1187.37</ele>
        <time>2019-02-07T12:39:55Z</time>
      </trkpt>
      <trkpt lat="46.28914" lon="6.50297">
        <ele>1187.85</ele>
        <time>2019-02-07T12:39:58Z</time>
      </trkpt>
      <trkpt lat="46.28911" lon="6.50305">
        <ele>1186.88</ele>
        <time>2019-02-07T12:40:05Z</time>
      </trkpt>
      <trkpt lat="46.28908" lon="6.50312">
        <ele>1186.88</ele>
        <time>2019-02-07T12:40:13Z</time>
      </trkpt>
      <trkpt lat="46.28906" lon="6.50317">
        <ele>1185.92</ele>
        <time>2019-02-07T12:40:24Z</time>
      </trkpt>
      <trkpt lat="46.28906" lon="6.50319">
        <ele>1184</ele>
        <time>2019-02-07T12:40:31Z</time>
      </trkpt>
      <trkpt lat="46.28907" lon="6.5032">
        <ele>1183.52</ele>
        <time>2019-02-07T12:40:33Z</time>
      </trkpt>
      <trkpt lat="46.28913" lon="6.50329">
        <ele>1181.6</ele>
        <time>2019-02-07T12:40:42Z</time>
      </trkpt>
      <trkpt lat="46.28921" lon="6.5034">
        <ele>1178.23</ele>
        <time>2019-02-07T12:40:55Z</time>
      </trkpt>
      <trkpt lat="46.28927" lon="6.50347">
        <ele>1176.79</ele>
        <time>2019-02-07T12:41:06Z</time>
      </trkpt>
      <trkpt lat="46.28933" lon="6.50353">
        <ele>1175.35</ele>
        <time>2019-02-07T12:41:16Z</time>
      </trkpt>
      <trkpt lat="46.2894" lon="6.50361">
        <ele>1172.95</ele>
        <time>2019-02-07T12:41:31Z</time>
      </trkpt>
      <trkpt lat="46.28949" lon="6.50369">
        <ele>1171.5</ele>
        <time>2019-02-07T12:41:43Z</time>
      </trkpt>
      <trkpt lat="46.28957" lon="6.50376">
        <ele>1170.06</ele>
        <time>2019-02-07T12:41:54Z</time>
      </trkpt>
      <trkpt lat="46.28964" lon="6.50379">
        <ele>1169.1</ele>
        <time>2019-02-07T12:42:06Z</time>
      </trkpt>
      <trkpt lat="46.28971" lon="6.50382">
        <ele>1168.14</ele>
        <time>2019-02-07T12:42:20Z</time>
      </trkpt>
      <trkpt lat="46.2898" lon="6.50387">
        <ele>1168.14</ele>
        <time>2019-02-07T12:42:30Z</time>
      </trkpt>
      <trkpt lat="46.28983" lon="6.50389">
        <ele>1167.18</ele>
        <time>2019-02-07T12:42:38Z</time>
      </trkpt>
      <trkpt lat="46.28991" lon="6.50391">
        <ele>1166.7</ele>
        <time>2019-02-07T12:42:53Z</time>
      </trkpt>
      <trkpt lat="46.28996" lon="6.50392">
        <ele>1166.7</ele>
        <time>2019-02-07T12:43:04Z</time>
      </trkpt>
      <trkpt lat="46.29002" lon="6.50396">
        <ele>1165.26</ele>
        <time>2019-02-07T12:43:14Z</time>
      </trkpt>
      <trkpt lat="46.29003" lon="6.50396">
        <ele>1165.74</ele>
        <time>2019-02-07T12:43:15Z</time>
      </trkpt>
      <trkpt lat="46.29011" lon="6.504">
        <ele>1166.7</ele>
        <time>2019-02-07T12:43:26Z</time>
      </trkpt>
      <trkpt lat="46.29022" lon="6.50408">
        <ele>1164.29</ele>
        <time>2019-02-07T12:43:39Z</time>
      </trkpt>
      <trkpt lat="46.29029" lon="6.50412">
        <ele>1163.81</ele>
        <time>2019-02-07T12:43:48Z</time>
      </trkpt>
      <trkpt lat="46.29034" lon="6.50417">
        <ele>1163.81</ele>
        <time>2019-02-07T12:43:57Z</time>
      </trkpt>
      <trkpt lat="46.29042" lon="6.50424">
        <ele>1164.77</ele>
        <time>2019-02-07T12:44:13Z</time>
      </trkpt>
      <trkpt lat="46.29043" lon="6.50426">
        <ele>1166.22</ele>
        <time>2019-02-07T12:44:25Z</time>
      </trkpt>
      <trkpt lat="46.29045" lon="6.5043">
        <ele>1166.7</ele>
        <time>2019-02-07T12:44:35Z</time>
      </trkpt>
      <trkpt lat="46.29047" lon="6.50432">
        <ele>1167.66</ele>
        <time>2019-02-07T12:44:39Z</time>
      </trkpt>
      <trkpt lat="46.2905" lon="6.50432">
        <ele>1168.14</ele>
        <time>2019-02-07T12:44:44Z</time>
      </trkpt>
      <trkpt lat="46.2906" lon="6.50434">
        <ele>1168.62</ele>
        <time>2019-02-07T12:44:55Z</time>
      </trkpt>
      <trkpt lat="46.29066" lon="6.50433">
        <ele>1169.58</ele>
        <time>2019-02-07T12:45:06Z</time>
      </trkpt>
      <trkpt lat="46.29074" lon="6.50434">
        <ele>1168.62</ele>
        <time>2019-02-07T12:45:18Z</time>
      </trkpt>
      <trkpt lat="46.29081" lon="6.50437">
        <ele>1169.1</ele>
        <time>2019-02-07T12:45:32Z</time>
      </trkpt>
      <trkpt lat="46.29088" lon="6.50441">
        <ele>1167.66</ele>
        <time>2019-02-07T12:45:44Z</time>
      </trkpt>
      <trkpt lat="46.29096" lon="6.50446">
        <ele>1167.18</ele>
        <time>2019-02-07T12:45:56Z</time>
      </trkpt>
      <trkpt lat="46.29104" lon="6.50451">
        <ele>1166.7</ele>
        <time>2019-02-07T12:46:11Z</time>
      </trkpt>
      <trkpt lat="46.2911" lon="6.50457">
        <ele>1166.7</ele>
        <time>2019-02-07T12:46:24Z</time>
      </trkpt>
      <trkpt lat="46.29116" lon="6.50463">
        <ele>1167.18</ele>
        <time>2019-02-07T12:46:38Z</time>
      </trkpt>
      <trkpt lat="46.29121" lon="6.5047">
        <ele>1167.66</ele>
        <time>2019-02-07T12:46:52Z</time>
      </trkpt>
      <trkpt lat="46.29126" lon="6.50474">
        <ele>1167.66</ele>
        <time>2019-02-07T12:47:05Z</time>
      </trkpt>
      <trkpt lat="46.29133" lon="6.50482">
        <ele>1168.62</ele>
        <time>2019-02-07T12:47:18Z</time>
      </trkpt>
      <trkpt lat="46.2914" lon="6.50489">
        <ele>1168.14</ele>
        <time>2019-02-07T12:47:33Z</time>
      </trkpt>
      <trkpt lat="46.29145" lon="6.50495">
        <ele>1168.14</ele>
        <time>2019-02-07T12:47:45Z</time>
      </trkpt>
      <trkpt lat="46.29153" lon="6.50502">
        <ele>1168.14</ele>
        <time>2019-02-07T12:47:59Z</time>
      </trkpt>
      <trkpt lat="46.29157" lon="6.50508">
        <ele>1169.1</ele>
        <time>2019-02-07T12:48:14Z</time>
      </trkpt>
      <trkpt lat="46.29161" lon="6.50513">
        <ele>1169.1</ele>
        <time>2019-02-07T12:48:26Z</time>
      </trkpt>
      <trkpt lat="46.29167" lon="6.50518">
        <ele>1169.1</ele>
        <time>2019-02-07T12:48:38Z</time>
      </trkpt>
      <trkpt lat="46.29174" lon="6.50524">
        <ele>1170.06</ele>
        <time>2019-02-07T12:48:51Z</time>
      </trkpt>
      <trkpt lat="46.2918" lon="6.50528">
        <ele>1170.06</ele>
        <time>2019-02-07T12:49:04Z</time>
      </trkpt>
      <trkpt lat="46.2919" lon="6.50533">
        <ele>1170.54</ele>
        <time>2019-02-07T12:49:17Z</time>
      </trkpt>
      <trkpt lat="46.29197" lon="6.50538">
        <ele>1170.54</ele>
        <time>2019-02-07T12:49:30Z</time>
      </trkpt>
      <trkpt lat="46.29205" lon="6.50544">
        <ele>1170.54</ele>
        <time>2019-02-07T12:49:43Z</time>
      </trkpt>
      <trkpt lat="46.29212" lon="6.50548">
        <ele>1170.54</ele>
        <time>2019-02-07T12:49:55Z</time>
      </trkpt>
      <trkpt lat="46.2922" lon="6.50552">
        <ele>1170.06</ele>
        <time>2019-02-07T12:50:09Z</time>
      </trkpt>
      <trkpt lat="46.29228" lon="6.50556">
        <ele>1170.06</ele>
        <time>2019-02-07T12:50:21Z</time>
      </trkpt>
      <trkpt lat="46.29237" lon="6.5056">
        <ele>1169.58</ele>
        <time>2019-02-07T12:50:35Z</time>
      </trkpt>
      <trkpt lat="46.29244" lon="6.50562">
        <ele>1169.1</ele>
        <time>2019-02-07T12:50:47Z</time>
      </trkpt>
      <trkpt lat="46.2925" lon="6.50567">
        <ele>1169.1</ele>
        <time>2019-02-07T12:50:57Z</time>
      </trkpt>
      <trkpt lat="46.29257" lon="6.50571">
        <ele>1168.62</ele>
        <time>2019-02-07T12:51:09Z</time>
      </trkpt>
      <trkpt lat="46.29263" lon="6.50575">
        <ele>1169.1</ele>
        <time>2019-02-07T12:51:20Z</time>
      </trkpt>
      <trkpt lat="46.2927" lon="6.50578">
        <ele>1167.66</ele>
        <time>2019-02-07T12:51:31Z</time>
      </trkpt>
      <trkpt lat="46.29277" lon="6.5058">
        <ele>1167.66</ele>
        <time>2019-02-07T12:51:43Z</time>
      </trkpt>
      <trkpt lat="46.29281" lon="6.50583">
        <ele>1166.22</ele>
        <time>2019-02-07T12:51:51Z</time>
      </trkpt>
      <trkpt lat="46.29283" lon="6.50587">
        <ele>1166.7</ele>
        <time>2019-02-07T12:51:55Z</time>
      </trkpt>
      <trkpt lat="46.29284" lon="6.50588">
        <ele>1166.22</ele>
        <time>2019-02-07T12:51:58Z</time>
      </trkpt>
      <trkpt lat="46.29288" lon="6.50593">
        <ele>1165.26</ele>
        <time>2019-02-07T12:52:04Z</time>
      </trkpt>
      <trkpt lat="46.29294" lon="6.50601">
        <ele>1164.29</ele>
        <time>2019-02-07T12:52:16Z</time>
      </trkpt>
      <trkpt lat="46.29301" lon="6.50603">
        <ele>1161.89</ele>
        <time>2019-02-07T12:52:28Z</time>
      </trkpt>
      <trkpt lat="46.29308" lon="6.5061">
        <ele>1159.97</ele>
        <time>2019-02-07T12:52:40Z</time>
      </trkpt>
      <trkpt lat="46.29318" lon="6.50619">
        <ele>1157.56</ele>
        <time>2019-02-07T12:52:54Z</time>
      </trkpt>
      <trkpt lat="46.29325" lon="6.50629">
        <ele>1155.64</ele>
        <time>2019-02-07T12:53:08Z</time>
      </trkpt>
      <trkpt lat="46.2933" lon="6.5064">
        <ele>1154.2</ele>
        <time>2019-02-07T12:53:21Z</time>
      </trkpt>
      <trkpt lat="46.29333" lon="6.50649">
        <ele>1153.72</ele>
        <time>2019-02-07T12:53:30Z</time>
      </trkpt>
      <trkpt lat="46.29335" lon="6.50662">
        <ele>1152.28</ele>
        <time>2019-02-07T12:53:43Z</time>
      </trkpt>
      <trkpt lat="46.29341" lon="6.50674">
        <ele>1149.39</ele>
        <time>2019-02-07T12:53:57Z</time>
      </trkpt>
      <trkpt lat="46.29344" lon="6.50685">
        <ele>1146.99</ele>
        <time>2019-02-07T12:54:09Z</time>
      </trkpt>
      <trkpt lat="46.29349" lon="6.50699">
        <ele>1144.59</ele>
        <time>2019-02-07T12:54:23Z</time>
      </trkpt>
      <trkpt lat="46.29352" lon="6.50709">
        <ele>1142.66</ele>
        <time>2019-02-07T12:54:34Z</time>
      </trkpt>
      <trkpt lat="46.29352" lon="6.50711">
        <ele>1142.66</ele>
        <time>2019-02-07T12:54:36Z</time>
      </trkpt>
      <trkpt lat="46.29357" lon="6.5072">
        <ele>1139.78</ele>
        <time>2019-02-07T12:54:49Z</time>
      </trkpt>
      <trkpt lat="46.29359" lon="6.50724">
        <ele>1138.34</ele>
        <time>2019-02-07T12:55:03Z</time>
      </trkpt>
      <trkpt lat="46.29363" lon="6.50727">
        <ele>1136.42</ele>
        <time>2019-02-07T12:55:09Z</time>
      </trkpt>
      <trkpt lat="46.29363" lon="6.50727">
        <ele>1135.94</ele>
        <time>2019-02-07T12:55:10Z</time>
      </trkpt>
      <trkpt lat="46.29369" lon="6.50732">
        <ele>1133.53</ele>
        <time>2019-02-07T12:55:21Z</time>
      </trkpt>
      <trkpt lat="46.29375" lon="6.50733">
        <ele>1131.61</ele>
        <time>2019-02-07T12:55:34Z</time>
      </trkpt>
      <trkpt lat="46.29382" lon="6.5073">
        <ele>1131.13</ele>
        <time>2019-02-07T12:55:45Z</time>
      </trkpt>
      <trkpt lat="46.29385" lon="6.5073">
        <ele>1131.13</ele>
        <time>2019-02-07T12:55:47Z</time>
      </trkpt>
      <trkpt lat="46.29399" lon="6.50727">
        <ele>1129.69</ele>
        <time>2019-02-07T12:56:00Z</time>
      </trkpt>
      <trkpt lat="46.29401" lon="6.50726">
        <ele>1129.69</ele>
        <time>2019-02-07T12:56:14Z</time>
      </trkpt>
      <trkpt lat="46.29401" lon="6.50727">
        <ele>1130.17</ele>
        <time>2019-02-07T12:57:43Z</time>
      </trkpt>
      <trkpt lat="46.29403" lon="6.5073">
        <ele>1129.69</ele>
        <time>2019-02-07T12:58:31Z</time>
      </trkpt>
      <trkpt lat="46.2941" lon="6.50743">
        <ele>1128.73</ele>
        <time>2019-02-07T12:58:44Z</time>
      </trkpt>
      <trkpt lat="46.29414" lon="6.50749">
        <ele>1129.21</ele>
        <time>2019-02-07T12:58:51Z</time>
      </trkpt>
      <trkpt lat="46.29415" lon="6.50754">
        <ele>1129.21</ele>
        <time>2019-02-07T12:58:55Z</time>
      </trkpt>
      <trkpt lat="46.29421" lon="6.50773">
        <ele>1127.28</ele>
        <time>2019-02-07T12:59:08Z</time>
      </trkpt>
      <trkpt lat="46.29424" lon="6.50793">
        <ele>1127.28</ele>
        <time>2019-02-07T12:59:22Z</time>
      </trkpt>
      <trkpt lat="46.29425" lon="6.50809">
        <ele>1126.32</ele>
        <time>2019-02-07T12:59:34Z</time>
      </trkpt>
      <trkpt lat="46.29425" lon="6.50823">
        <ele>1125.36</ele>
        <time>2019-02-07T12:59:47Z</time>
      </trkpt>
      <trkpt lat="46.29427" lon="6.50833">
        <ele>1123.44</ele>
        <time>2019-02-07T12:59:57Z</time>
      </trkpt>
      <trkpt lat="46.29434" lon="6.50852">
        <ele>1122.96</ele>
        <time>2019-02-07T13:00:12Z</time>
      </trkpt>
      <trkpt lat="46.29437" lon="6.5086">
        <ele>1121.52</ele>
        <time>2019-02-07T13:00:21Z</time>
      </trkpt>
      <trkpt lat="46.2944" lon="6.50868">
        <ele>1119.11</ele>
        <time>2019-02-07T13:00:32Z</time>
      </trkpt>
      <trkpt lat="46.29441" lon="6.50875">
        <ele>1118.63</ele>
        <time>2019-02-07T13:00:37Z</time>
      </trkpt>
      <trkpt lat="46.29442" lon="6.50889">
        <ele>1119.59</ele>
        <time>2019-02-07T13:00:50Z</time>
      </trkpt>
      <trkpt lat="46.29442" lon="6.50889">
        <ele>1118.15</ele>
        <time>2019-02-07T13:01:21Z</time>
      </trkpt>
      <trkpt lat="46.29442" lon="6.50889">
        <ele>1118.63</ele>
        <time>2019-02-07T13:02:05Z</time>
      </trkpt>
    </trkseg>
  </trk>
</gpx>